<?xml version="1.0" encoding="UTF-8" standalone="no" ?>
<gpx xmlns="http://www.topografix.com/GPX/1/1" xmlns:xsi="http://www.w3.org/2001/XMLSchema-instance" xsi:schemaLocation="http://www.topografix.com/GPX/1/1 http://www.topografix.com/GPX/1/1/gpx.xsd" version="1.1" creator="VisuGPX - https://www.visugpx.com">
  <metadata>
    <name>Bois du Laring</name>
    <desc><![CDATA[Des bois de toute part, de jolies crêtes, une montée pas trop raide, c\'était le lieu des maquisards du bois d\'Oloron.]]></desc>
  </metadata>
  <trk>
    <name><![CDATA[Tracé actuel: 13 MARS 2012 09:51]]></name>
    <trkseg>
      <trkpt lat="43.25042" lon="-0.5134">
        <ele>262.1</ele>
        <time>2012-03-13T08:51:29Z</time>
      </trkpt>
      <trkpt lat="43.25049" lon="-0.51345">
        <ele>262.58</ele>
        <time>2012-03-13T08:52:23Z</time>
      </trkpt>
      <trkpt lat="43.25068" lon="-0.51335">
        <ele>262.58</ele>
        <time>2012-03-13T08:53:34Z</time>
      </trkpt>
      <trkpt lat="43.25081" lon="-0.5133">
        <ele>263.06</ele>
        <time>2012-03-13T08:53:45Z</time>
      </trkpt>
      <trkpt lat="43.2509" lon="-0.51328">
        <ele>263.06</ele>
        <time>2012-03-13T08:53:52Z</time>
      </trkpt>
      <trkpt lat="43.25098" lon="-0.51322">
        <ele>264.5</ele>
        <time>2012-03-13T08:54:03Z</time>
      </trkpt>
      <trkpt lat="43.25104" lon="-0.51313">
        <ele>267.38</ele>
        <time>2012-03-13T08:54:26Z</time>
      </trkpt>
      <trkpt lat="43.25112" lon="-0.51309">
        <ele>268.83</ele>
        <time>2012-03-13T08:54:44Z</time>
      </trkpt>
      <trkpt lat="43.25116" lon="-0.51299">
        <ele>272.67</ele>
        <time>2012-03-13T08:55:14Z</time>
      </trkpt>
      <trkpt lat="43.25125" lon="-0.5129">
        <ele>275.56</ele>
        <time>2012-03-13T08:55:28Z</time>
      </trkpt>
      <trkpt lat="43.25132" lon="-0.51283">
        <ele>276.04</ele>
        <time>2012-03-13T08:55:39Z</time>
      </trkpt>
      <trkpt lat="43.2514" lon="-0.51276">
        <ele>277.96</ele>
        <time>2012-03-13T08:55:54Z</time>
      </trkpt>
      <trkpt lat="43.25146" lon="-0.51268">
        <ele>279.88</ele>
        <time>2012-03-13T08:56:10Z</time>
      </trkpt>
      <trkpt lat="43.25153" lon="-0.51261">
        <ele>281.32</ele>
        <time>2012-03-13T08:56:24Z</time>
      </trkpt>
      <trkpt lat="43.25162" lon="-0.51256">
        <ele>282.77</ele>
        <time>2012-03-13T08:56:35Z</time>
      </trkpt>
      <trkpt lat="43.25169" lon="-0.51248">
        <ele>284.21</ele>
        <time>2012-03-13T08:56:48Z</time>
      </trkpt>
      <trkpt lat="43.25174" lon="-0.51238">
        <ele>285.65</ele>
        <time>2012-03-13T08:57:00Z</time>
      </trkpt>
      <trkpt lat="43.25182" lon="-0.51232">
        <ele>287.09</ele>
        <time>2012-03-13T08:57:10Z</time>
      </trkpt>
      <trkpt lat="43.2519" lon="-0.51225">
        <ele>289.01</ele>
        <time>2012-03-13T08:57:23Z</time>
      </trkpt>
      <trkpt lat="43.25198" lon="-0.51222">
        <ele>290.46</ele>
        <time>2012-03-13T08:57:35Z</time>
      </trkpt>
      <trkpt lat="43.25203" lon="-0.51212">
        <ele>290.94</ele>
        <time>2012-03-13T08:57:45Z</time>
      </trkpt>
      <trkpt lat="43.25207" lon="-0.51202">
        <ele>292.86</ele>
        <time>2012-03-13T08:57:58Z</time>
      </trkpt>
      <trkpt lat="43.25204" lon="-0.51189">
        <ele>293.82</ele>
        <time>2012-03-13T08:58:08Z</time>
      </trkpt>
      <trkpt lat="43.25202" lon="-0.51177">
        <ele>295.26</ele>
        <time>2012-03-13T08:58:18Z</time>
      </trkpt>
      <trkpt lat="43.25199" lon="-0.51166">
        <ele>296.22</ele>
        <time>2012-03-13T08:58:26Z</time>
      </trkpt>
      <trkpt lat="43.252" lon="-0.51155">
        <ele>297.18</ele>
        <time>2012-03-13T08:58:41Z</time>
      </trkpt>
      <trkpt lat="43.25194" lon="-0.51142">
        <ele>299.11</ele>
        <time>2012-03-13T08:58:53Z</time>
      </trkpt>
      <trkpt lat="43.25192" lon="-0.51129">
        <ele>299.59</ele>
        <time>2012-03-13T08:59:04Z</time>
      </trkpt>
      <trkpt lat="43.25187" lon="-0.51109">
        <ele>300.07</ele>
        <time>2012-03-13T08:59:23Z</time>
      </trkpt>
      <trkpt lat="43.25192" lon="-0.51109">
        <ele>300.07</ele>
        <time>2012-03-13T08:59:37Z</time>
      </trkpt>
      <trkpt lat="43.25201" lon="-0.51113">
        <ele>300.07</ele>
        <time>2012-03-13T08:59:48Z</time>
      </trkpt>
      <trkpt lat="43.2521" lon="-0.51117">
        <ele>299.59</ele>
        <time>2012-03-13T08:59:57Z</time>
      </trkpt>
      <trkpt lat="43.25219" lon="-0.51122">
        <ele>300.07</ele>
        <time>2012-03-13T09:00:07Z</time>
      </trkpt>
      <trkpt lat="43.25228" lon="-0.51128">
        <ele>299.11</ele>
        <time>2012-03-13T09:00:18Z</time>
      </trkpt>
      <trkpt lat="43.25236" lon="-0.51133">
        <ele>298.63</ele>
        <time>2012-03-13T09:00:30Z</time>
      </trkpt>
      <trkpt lat="43.25244" lon="-0.5114">
        <ele>296.7</ele>
        <time>2012-03-13T09:00:43Z</time>
      </trkpt>
      <trkpt lat="43.2525" lon="-0.51148">
        <ele>295.26</ele>
        <time>2012-03-13T09:00:54Z</time>
      </trkpt>
      <trkpt lat="43.25257" lon="-0.51157">
        <ele>294.3</ele>
        <time>2012-03-13T09:01:05Z</time>
      </trkpt>
      <trkpt lat="43.25265" lon="-0.51162">
        <ele>293.82</ele>
        <time>2012-03-13T09:01:16Z</time>
      </trkpt>
      <trkpt lat="43.25274" lon="-0.51165">
        <ele>292.38</ele>
        <time>2012-03-13T09:01:26Z</time>
      </trkpt>
      <trkpt lat="43.25282" lon="-0.5117">
        <ele>291.9</ele>
        <time>2012-03-13T09:01:39Z</time>
      </trkpt>
      <trkpt lat="43.25289" lon="-0.51178">
        <ele>291.42</ele>
        <time>2012-03-13T09:01:50Z</time>
      </trkpt>
      <trkpt lat="43.25298" lon="-0.51181">
        <ele>290.46</ele>
        <time>2012-03-13T09:02:11Z</time>
      </trkpt>
      <trkpt lat="43.25304" lon="-0.51186">
        <ele>289.01</ele>
        <time>2012-03-13T09:02:37Z</time>
      </trkpt>
      <trkpt lat="43.25314" lon="-0.51199">
        <ele>287.57</ele>
        <time>2012-03-13T09:02:53Z</time>
      </trkpt>
      <trkpt lat="43.25321" lon="-0.51209">
        <ele>287.09</ele>
        <time>2012-03-13T09:03:02Z</time>
      </trkpt>
      <trkpt lat="43.25331" lon="-0.51212">
        <ele>285.65</ele>
        <time>2012-03-13T09:03:14Z</time>
      </trkpt>
      <trkpt lat="43.2534" lon="-0.51217">
        <ele>285.17</ele>
        <time>2012-03-13T09:03:21Z</time>
      </trkpt>
      <trkpt lat="43.25346" lon="-0.51226">
        <ele>284.69</ele>
        <time>2012-03-13T09:03:29Z</time>
      </trkpt>
      <trkpt lat="43.25355" lon="-0.51234">
        <ele>283.73</ele>
        <time>2012-03-13T09:03:40Z</time>
      </trkpt>
      <trkpt lat="43.25364" lon="-0.51239">
        <ele>281.8</ele>
        <time>2012-03-13T09:03:51Z</time>
      </trkpt>
      <trkpt lat="43.25371" lon="-0.51247">
        <ele>280.84</ele>
        <time>2012-03-13T09:04:00Z</time>
      </trkpt>
      <trkpt lat="43.25379" lon="-0.51255">
        <ele>280.36</ele>
        <time>2012-03-13T09:04:08Z</time>
      </trkpt>
      <trkpt lat="43.25388" lon="-0.51257">
        <ele>280.36</ele>
        <time>2012-03-13T09:04:16Z</time>
      </trkpt>
      <trkpt lat="43.25405" lon="-0.51259">
        <ele>279.88</ele>
        <time>2012-03-13T09:04:35Z</time>
      </trkpt>
      <trkpt lat="43.25418" lon="-0.51257">
        <ele>279.88</ele>
        <time>2012-03-13T09:04:44Z</time>
      </trkpt>
      <trkpt lat="43.25431" lon="-0.51258">
        <ele>280.36</ele>
        <time>2012-03-13T09:05:00Z</time>
      </trkpt>
      <trkpt lat="43.25441" lon="-0.51261">
        <ele>280.84</ele>
        <time>2012-03-13T09:05:10Z</time>
      </trkpt>
      <trkpt lat="43.25455" lon="-0.51261">
        <ele>280.84</ele>
        <time>2012-03-13T09:05:31Z</time>
      </trkpt>
      <trkpt lat="43.25466" lon="-0.51262">
        <ele>281.32</ele>
        <time>2012-03-13T09:05:39Z</time>
      </trkpt>
      <trkpt lat="43.25476" lon="-0.51264">
        <ele>281.32</ele>
        <time>2012-03-13T09:05:47Z</time>
      </trkpt>
      <trkpt lat="43.25485" lon="-0.5127">
        <ele>281.32</ele>
        <time>2012-03-13T09:05:55Z</time>
      </trkpt>
      <trkpt lat="43.25491" lon="-0.51278">
        <ele>281.32</ele>
        <time>2012-03-13T09:06:05Z</time>
      </trkpt>
      <trkpt lat="43.255" lon="-0.51275">
        <ele>281.8</ele>
        <time>2012-03-13T09:06:13Z</time>
      </trkpt>
      <trkpt lat="43.25509" lon="-0.51277">
        <ele>281.8</ele>
        <time>2012-03-13T09:06:22Z</time>
      </trkpt>
      <trkpt lat="43.2552" lon="-0.5128">
        <ele>282.77</ele>
        <time>2012-03-13T09:06:32Z</time>
      </trkpt>
      <trkpt lat="43.25533" lon="-0.51283">
        <ele>282.77</ele>
        <time>2012-03-13T09:06:44Z</time>
      </trkpt>
      <trkpt lat="43.25544" lon="-0.51286">
        <ele>283.25</ele>
        <time>2012-03-13T09:06:53Z</time>
      </trkpt>
      <trkpt lat="43.25554" lon="-0.51288">
        <ele>282.77</ele>
        <time>2012-03-13T09:07:02Z</time>
      </trkpt>
      <trkpt lat="43.25565" lon="-0.51292">
        <ele>283.25</ele>
        <time>2012-03-13T09:07:15Z</time>
      </trkpt>
      <trkpt lat="43.25574" lon="-0.51295">
        <ele>283.25</ele>
        <time>2012-03-13T09:07:23Z</time>
      </trkpt>
      <trkpt lat="43.25583" lon="-0.51298">
        <ele>284.21</ele>
        <time>2012-03-13T09:07:31Z</time>
      </trkpt>
      <trkpt lat="43.25592" lon="-0.51301">
        <ele>283.73</ele>
        <time>2012-03-13T09:07:39Z</time>
      </trkpt>
      <trkpt lat="43.25602" lon="-0.51301">
        <ele>284.21</ele>
        <time>2012-03-13T09:07:47Z</time>
      </trkpt>
      <trkpt lat="43.25611" lon="-0.51302">
        <ele>285.17</ele>
        <time>2012-03-13T09:07:57Z</time>
      </trkpt>
      <trkpt lat="43.25619" lon="-0.51306">
        <ele>285.17</ele>
        <time>2012-03-13T09:08:06Z</time>
      </trkpt>
      <trkpt lat="43.25628" lon="-0.51304">
        <ele>286.13</ele>
        <time>2012-03-13T09:08:15Z</time>
      </trkpt>
      <trkpt lat="43.25638" lon="-0.51305">
        <ele>285.65</ele>
        <time>2012-03-13T09:08:26Z</time>
      </trkpt>
      <trkpt lat="43.25649" lon="-0.51309">
        <ele>284.69</ele>
        <time>2012-03-13T09:08:42Z</time>
      </trkpt>
      <trkpt lat="43.25658" lon="-0.51315">
        <ele>284.21</ele>
        <time>2012-03-13T09:08:49Z</time>
      </trkpt>
      <trkpt lat="43.2567" lon="-0.51317">
        <ele>282.28</ele>
        <time>2012-03-13T09:09:38Z</time>
      </trkpt>
      <trkpt lat="43.25684" lon="-0.51323">
        <ele>280.84</ele>
        <time>2012-03-13T09:09:54Z</time>
      </trkpt>
      <trkpt lat="43.25695" lon="-0.51332">
        <ele>279.88</ele>
        <time>2012-03-13T09:10:04Z</time>
      </trkpt>
      <trkpt lat="43.25713" lon="-0.51338">
        <ele>281.8</ele>
        <time>2012-03-13T09:10:16Z</time>
      </trkpt>
      <trkpt lat="43.25728" lon="-0.51339">
        <ele>280.84</ele>
        <time>2012-03-13T09:10:30Z</time>
      </trkpt>
      <trkpt lat="43.25736" lon="-0.51338">
        <ele>281.8</ele>
        <time>2012-03-13T09:10:39Z</time>
      </trkpt>
      <trkpt lat="43.2575" lon="-0.51339">
        <ele>283.25</ele>
        <time>2012-03-13T09:10:49Z</time>
      </trkpt>
      <trkpt lat="43.2576" lon="-0.51341">
        <ele>283.73</ele>
        <time>2012-03-13T09:10:58Z</time>
      </trkpt>
      <trkpt lat="43.25769" lon="-0.51342">
        <ele>285.17</ele>
        <time>2012-03-13T09:11:08Z</time>
      </trkpt>
      <trkpt lat="43.25777" lon="-0.51345">
        <ele>285.65</ele>
        <time>2012-03-13T09:11:18Z</time>
      </trkpt>
      <trkpt lat="43.25786" lon="-0.51353">
        <ele>286.61</ele>
        <time>2012-03-13T09:11:29Z</time>
      </trkpt>
      <trkpt lat="43.25794" lon="-0.51362">
        <ele>286.13</ele>
        <time>2012-03-13T09:11:43Z</time>
      </trkpt>
      <trkpt lat="43.25801" lon="-0.51369">
        <ele>286.61</ele>
        <time>2012-03-13T09:11:55Z</time>
      </trkpt>
      <trkpt lat="43.25808" lon="-0.5138">
        <ele>285.65</ele>
        <time>2012-03-13T09:12:05Z</time>
      </trkpt>
      <trkpt lat="43.25816" lon="-0.51387">
        <ele>285.65</ele>
        <time>2012-03-13T09:12:14Z</time>
      </trkpt>
      <trkpt lat="43.25825" lon="-0.51396">
        <ele>285.17</ele>
        <time>2012-03-13T09:12:23Z</time>
      </trkpt>
      <trkpt lat="43.25834" lon="-0.51402">
        <ele>284.69</ele>
        <time>2012-03-13T09:12:31Z</time>
      </trkpt>
      <trkpt lat="43.25845" lon="-0.51406">
        <ele>282.77</ele>
        <time>2012-03-13T09:12:41Z</time>
      </trkpt>
      <trkpt lat="43.25855" lon="-0.51411">
        <ele>281.8</ele>
        <time>2012-03-13T09:12:51Z</time>
      </trkpt>
      <trkpt lat="43.25862" lon="-0.51421">
        <ele>279.88</ele>
        <time>2012-03-13T09:13:01Z</time>
      </trkpt>
      <trkpt lat="43.25866" lon="-0.51432">
        <ele>279.88</ele>
        <time>2012-03-13T09:13:12Z</time>
      </trkpt>
      <trkpt lat="43.25872" lon="-0.51442">
        <ele>279.4</ele>
        <time>2012-03-13T09:13:20Z</time>
      </trkpt>
      <trkpt lat="43.25879" lon="-0.5145">
        <ele>277.96</ele>
        <time>2012-03-13T09:13:29Z</time>
      </trkpt>
      <trkpt lat="43.25888" lon="-0.51453">
        <ele>276.04</ele>
        <time>2012-03-13T09:13:40Z</time>
      </trkpt>
      <trkpt lat="43.25896" lon="-0.51464">
        <ele>274.11</ele>
        <time>2012-03-13T09:13:51Z</time>
      </trkpt>
      <trkpt lat="43.25902" lon="-0.51476">
        <ele>273.63</ele>
        <time>2012-03-13T09:14:00Z</time>
      </trkpt>
      <trkpt lat="43.25906" lon="-0.51486">
        <ele>273.15</ele>
        <time>2012-03-13T09:14:09Z</time>
      </trkpt>
      <trkpt lat="43.25912" lon="-0.51496">
        <ele>272.67</ele>
        <time>2012-03-13T09:14:21Z</time>
      </trkpt>
      <trkpt lat="43.25921" lon="-0.51504">
        <ele>271.71</ele>
        <time>2012-03-13T09:14:31Z</time>
      </trkpt>
      <trkpt lat="43.25931" lon="-0.51504">
        <ele>271.23</ele>
        <time>2012-03-13T09:14:41Z</time>
      </trkpt>
      <trkpt lat="43.2594" lon="-0.51506">
        <ele>271.23</ele>
        <time>2012-03-13T09:14:49Z</time>
      </trkpt>
      <trkpt lat="43.25951" lon="-0.5151">
        <ele>271.23</ele>
        <time>2012-03-13T09:14:58Z</time>
      </trkpt>
      <trkpt lat="43.25961" lon="-0.5151">
        <ele>271.71</ele>
        <time>2012-03-13T09:15:08Z</time>
      </trkpt>
      <trkpt lat="43.25969" lon="-0.51516">
        <ele>272.19</ele>
        <time>2012-03-13T09:15:17Z</time>
      </trkpt>
      <trkpt lat="43.25977" lon="-0.51523">
        <ele>271.71</ele>
        <time>2012-03-13T09:15:27Z</time>
      </trkpt>
      <trkpt lat="43.25983" lon="-0.51529">
        <ele>272.67</ele>
        <time>2012-03-13T09:15:37Z</time>
      </trkpt>
      <trkpt lat="43.2599" lon="-0.51533">
        <ele>272.67</ele>
        <time>2012-03-13T09:15:46Z</time>
      </trkpt>
      <trkpt lat="43.25999" lon="-0.51534">
        <ele>273.15</ele>
        <time>2012-03-13T09:15:54Z</time>
      </trkpt>
      <trkpt lat="43.26008" lon="-0.51534">
        <ele>273.63</ele>
        <time>2012-03-13T09:16:03Z</time>
      </trkpt>
      <trkpt lat="43.26017" lon="-0.51536">
        <ele>273.63</ele>
        <time>2012-03-13T09:16:12Z</time>
      </trkpt>
      <trkpt lat="43.26026" lon="-0.5154">
        <ele>274.59</ele>
        <time>2012-03-13T09:16:21Z</time>
      </trkpt>
      <trkpt lat="43.2603" lon="-0.51549">
        <ele>274.59</ele>
        <time>2012-03-13T09:16:34Z</time>
      </trkpt>
      <trkpt lat="43.26033" lon="-0.51559">
        <ele>273.63</ele>
        <time>2012-03-13T09:16:45Z</time>
      </trkpt>
      <trkpt lat="43.26041" lon="-0.5157">
        <ele>273.15</ele>
        <time>2012-03-13T09:16:55Z</time>
      </trkpt>
      <trkpt lat="43.26049" lon="-0.51577">
        <ele>272.67</ele>
        <time>2012-03-13T09:17:03Z</time>
      </trkpt>
      <trkpt lat="43.26057" lon="-0.51585">
        <ele>272.19</ele>
        <time>2012-03-13T09:17:13Z</time>
      </trkpt>
      <trkpt lat="43.26066" lon="-0.51592">
        <ele>271.71</ele>
        <time>2012-03-13T09:17:23Z</time>
      </trkpt>
      <trkpt lat="43.26075" lon="-0.51601">
        <ele>270.75</ele>
        <time>2012-03-13T09:17:32Z</time>
      </trkpt>
      <trkpt lat="43.26081" lon="-0.51614">
        <ele>269.79</ele>
        <time>2012-03-13T09:17:43Z</time>
      </trkpt>
      <trkpt lat="43.26089" lon="-0.5162">
        <ele>267.86</ele>
        <time>2012-03-13T09:17:52Z</time>
      </trkpt>
      <trkpt lat="43.26098" lon="-0.51622">
        <ele>267.86</ele>
        <time>2012-03-13T09:18:02Z</time>
      </trkpt>
      <trkpt lat="43.26107" lon="-0.51625">
        <ele>265.94</ele>
        <time>2012-03-13T09:18:11Z</time>
      </trkpt>
      <trkpt lat="43.26118" lon="-0.51629">
        <ele>264.98</ele>
        <time>2012-03-13T09:18:20Z</time>
      </trkpt>
      <trkpt lat="43.26127" lon="-0.51638">
        <ele>264.02</ele>
        <time>2012-03-13T09:18:30Z</time>
      </trkpt>
      <trkpt lat="43.26135" lon="-0.51645">
        <ele>263.06</ele>
        <time>2012-03-13T09:18:39Z</time>
      </trkpt>
      <trkpt lat="43.26144" lon="-0.51651">
        <ele>263.06</ele>
        <time>2012-03-13T09:18:51Z</time>
      </trkpt>
      <trkpt lat="43.26153" lon="-0.51657">
        <ele>262.58</ele>
        <time>2012-03-13T09:19:00Z</time>
      </trkpt>
      <trkpt lat="43.26159" lon="-0.51665">
        <ele>262.1</ele>
        <time>2012-03-13T09:19:10Z</time>
      </trkpt>
      <trkpt lat="43.2617" lon="-0.51668">
        <ele>261.62</ele>
        <time>2012-03-13T09:19:19Z</time>
      </trkpt>
      <trkpt lat="43.2618" lon="-0.51671">
        <ele>261.62</ele>
        <time>2012-03-13T09:19:29Z</time>
      </trkpt>
      <trkpt lat="43.26188" lon="-0.51676">
        <ele>262.1</ele>
        <time>2012-03-13T09:19:37Z</time>
      </trkpt>
      <trkpt lat="43.26198" lon="-0.51676">
        <ele>262.1</ele>
        <time>2012-03-13T09:19:46Z</time>
      </trkpt>
      <trkpt lat="43.26208" lon="-0.51673">
        <ele>261.14</ele>
        <time>2012-03-13T09:19:53Z</time>
      </trkpt>
      <trkpt lat="43.26217" lon="-0.51673">
        <ele>260.65</ele>
        <time>2012-03-13T09:20:03Z</time>
      </trkpt>
      <trkpt lat="43.26226" lon="-0.51676">
        <ele>259.69</ele>
        <time>2012-03-13T09:20:13Z</time>
      </trkpt>
      <trkpt lat="43.26236" lon="-0.51679">
        <ele>259.69</ele>
        <time>2012-03-13T09:20:22Z</time>
      </trkpt>
      <trkpt lat="43.26244" lon="-0.51685">
        <ele>259.69</ele>
        <time>2012-03-13T09:20:31Z</time>
      </trkpt>
      <trkpt lat="43.26252" lon="-0.51684">
        <ele>259.21</ele>
        <time>2012-03-13T09:20:39Z</time>
      </trkpt>
      <trkpt lat="43.2626" lon="-0.51688">
        <ele>259.21</ele>
        <time>2012-03-13T09:20:48Z</time>
      </trkpt>
      <trkpt lat="43.26269" lon="-0.51693">
        <ele>259.21</ele>
        <time>2012-03-13T09:20:59Z</time>
      </trkpt>
      <trkpt lat="43.2628" lon="-0.51701">
        <ele>258.73</ele>
        <time>2012-03-13T09:21:10Z</time>
      </trkpt>
      <trkpt lat="43.2629" lon="-0.51705">
        <ele>257.29</ele>
        <time>2012-03-13T09:21:20Z</time>
      </trkpt>
      <trkpt lat="43.263" lon="-0.51707">
        <ele>257.29</ele>
        <time>2012-03-13T09:21:28Z</time>
      </trkpt>
      <trkpt lat="43.26309" lon="-0.5171">
        <ele>257.29</ele>
        <time>2012-03-13T09:21:34Z</time>
      </trkpt>
      <trkpt lat="43.26318" lon="-0.51713">
        <ele>256.33</ele>
        <time>2012-03-13T09:21:45Z</time>
      </trkpt>
      <trkpt lat="43.26328" lon="-0.51718">
        <ele>256.33</ele>
        <time>2012-03-13T09:21:52Z</time>
      </trkpt>
      <trkpt lat="43.26338" lon="-0.5172">
        <ele>255.85</ele>
        <time>2012-03-13T09:21:59Z</time>
      </trkpt>
      <trkpt lat="43.2635" lon="-0.51723">
        <ele>254.41</ele>
        <time>2012-03-13T09:22:17Z</time>
      </trkpt>
      <trkpt lat="43.2636" lon="-0.51726">
        <ele>254.41</ele>
        <time>2012-03-13T09:22:23Z</time>
      </trkpt>
      <trkpt lat="43.26369" lon="-0.5173">
        <ele>253.93</ele>
        <time>2012-03-13T09:22:32Z</time>
      </trkpt>
      <trkpt lat="43.26378" lon="-0.51737">
        <ele>253.44</ele>
        <time>2012-03-13T09:22:41Z</time>
      </trkpt>
      <trkpt lat="43.26387" lon="-0.51743">
        <ele>252.96</ele>
        <time>2012-03-13T09:22:51Z</time>
      </trkpt>
      <trkpt lat="43.26394" lon="-0.51752">
        <ele>252.48</ele>
        <time>2012-03-13T09:22:58Z</time>
      </trkpt>
      <trkpt lat="43.26403" lon="-0.51762">
        <ele>251.52</ele>
        <time>2012-03-13T09:23:07Z</time>
      </trkpt>
      <trkpt lat="43.26412" lon="-0.51767">
        <ele>252</ele>
        <time>2012-03-13T09:23:15Z</time>
      </trkpt>
      <trkpt lat="43.2642" lon="-0.51774">
        <ele>251.04</ele>
        <time>2012-03-13T09:23:23Z</time>
      </trkpt>
      <trkpt lat="43.26428" lon="-0.51779">
        <ele>250.56</ele>
        <time>2012-03-13T09:23:32Z</time>
      </trkpt>
      <trkpt lat="43.26425" lon="-0.51779">
        <ele>249.6</ele>
        <time>2012-03-13T09:25:30Z</time>
      </trkpt>
      <trkpt lat="43.26441" lon="-0.51786">
        <ele>249.6</ele>
        <time>2012-03-13T09:25:50Z</time>
      </trkpt>
      <trkpt lat="43.26435" lon="-0.51794">
        <ele>248.64</ele>
        <time>2012-03-13T09:26:04Z</time>
      </trkpt>
      <trkpt lat="43.26426" lon="-0.51803">
        <ele>248.16</ele>
        <time>2012-03-13T09:26:12Z</time>
      </trkpt>
      <trkpt lat="43.26422" lon="-0.51812">
        <ele>247.2</ele>
        <time>2012-03-13T09:26:25Z</time>
      </trkpt>
      <trkpt lat="43.26422" lon="-0.51825">
        <ele>246.23</ele>
        <time>2012-03-13T09:26:34Z</time>
      </trkpt>
      <trkpt lat="43.26422" lon="-0.51837">
        <ele>245.27</ele>
        <time>2012-03-13T09:26:44Z</time>
      </trkpt>
      <trkpt lat="43.26425" lon="-0.5185">
        <ele>243.83</ele>
        <time>2012-03-13T09:26:54Z</time>
      </trkpt>
      <trkpt lat="43.26431" lon="-0.51858">
        <ele>242.39</ele>
        <time>2012-03-13T09:27:03Z</time>
      </trkpt>
      <trkpt lat="43.26437" lon="-0.51867">
        <ele>240.95</ele>
        <time>2012-03-13T09:27:16Z</time>
      </trkpt>
      <trkpt lat="43.26442" lon="-0.51878">
        <ele>239.02</ele>
        <time>2012-03-13T09:27:27Z</time>
      </trkpt>
      <trkpt lat="43.26446" lon="-0.5189">
        <ele>238.06</ele>
        <time>2012-03-13T09:27:38Z</time>
      </trkpt>
      <trkpt lat="43.26453" lon="-0.51898">
        <ele>236.62</ele>
        <time>2012-03-13T09:27:47Z</time>
      </trkpt>
      <trkpt lat="43.2646" lon="-0.51905">
        <ele>234.22</ele>
        <time>2012-03-13T09:28:01Z</time>
      </trkpt>
      <trkpt lat="43.26463" lon="-0.51916">
        <ele>231.33</ele>
        <time>2012-03-13T09:28:13Z</time>
      </trkpt>
      <trkpt lat="43.26451" lon="-0.51916">
        <ele>228.45</ele>
        <time>2012-03-13T09:28:29Z</time>
      </trkpt>
      <trkpt lat="43.26442" lon="-0.51917">
        <ele>227.97</ele>
        <time>2012-03-13T09:28:42Z</time>
      </trkpt>
      <trkpt lat="43.26432" lon="-0.51918">
        <ele>226.05</ele>
        <time>2012-03-13T09:28:53Z</time>
      </trkpt>
      <trkpt lat="43.2642" lon="-0.51922">
        <ele>225.09</ele>
        <time>2012-03-13T09:29:04Z</time>
      </trkpt>
      <trkpt lat="43.26411" lon="-0.51924">
        <ele>224.12</ele>
        <time>2012-03-13T09:29:12Z</time>
      </trkpt>
      <trkpt lat="43.26403" lon="-0.51932">
        <ele>220.76</ele>
        <time>2012-03-13T09:29:29Z</time>
      </trkpt>
      <trkpt lat="43.26393" lon="-0.51938">
        <ele>216.43</ele>
        <time>2012-03-13T09:30:06Z</time>
      </trkpt>
      <trkpt lat="43.26384" lon="-0.5194">
        <ele>214.99</ele>
        <time>2012-03-13T09:30:14Z</time>
      </trkpt>
      <trkpt lat="43.26375" lon="-0.51945">
        <ele>213.07</ele>
        <time>2012-03-13T09:30:26Z</time>
      </trkpt>
      <trkpt lat="43.26367" lon="-0.5195">
        <ele>211.15</ele>
        <time>2012-03-13T09:30:41Z</time>
      </trkpt>
      <trkpt lat="43.2636" lon="-0.51959">
        <ele>210.19</ele>
        <time>2012-03-13T09:30:50Z</time>
      </trkpt>
      <trkpt lat="43.26357" lon="-0.5197">
        <ele>209.22</ele>
        <time>2012-03-13T09:31:17Z</time>
      </trkpt>
      <trkpt lat="43.26354" lon="-0.51985">
        <ele>209.22</ele>
        <time>2012-03-13T09:31:27Z</time>
      </trkpt>
      <trkpt lat="43.26352" lon="-0.51999">
        <ele>209.7</ele>
        <time>2012-03-13T09:31:37Z</time>
      </trkpt>
      <trkpt lat="43.26346" lon="-0.52014">
        <ele>210.67</ele>
        <time>2012-03-13T09:31:48Z</time>
      </trkpt>
      <trkpt lat="43.26342" lon="-0.52027">
        <ele>211.15</ele>
        <time>2012-03-13T09:32:00Z</time>
      </trkpt>
      <trkpt lat="43.26339" lon="-0.52041">
        <ele>211.63</ele>
        <time>2012-03-13T09:32:17Z</time>
      </trkpt>
      <trkpt lat="43.26338" lon="-0.52055">
        <ele>212.11</ele>
        <time>2012-03-13T09:32:27Z</time>
      </trkpt>
      <trkpt lat="43.26332" lon="-0.52067">
        <ele>212.59</ele>
        <time>2012-03-13T09:32:41Z</time>
      </trkpt>
      <trkpt lat="43.26327" lon="-0.52082">
        <ele>213.55</ele>
        <time>2012-03-13T09:32:55Z</time>
      </trkpt>
      <trkpt lat="43.26314" lon="-0.52091">
        <ele>214.51</ele>
        <time>2012-03-13T09:33:07Z</time>
      </trkpt>
      <trkpt lat="43.26301" lon="-0.52091">
        <ele>214.99</ele>
        <time>2012-03-13T09:33:19Z</time>
      </trkpt>
      <trkpt lat="43.2629" lon="-0.52087">
        <ele>214.51</ele>
        <time>2012-03-13T09:33:30Z</time>
      </trkpt>
      <trkpt lat="43.2628" lon="-0.52085">
        <ele>214.99</ele>
        <time>2012-03-13T09:33:40Z</time>
      </trkpt>
      <trkpt lat="43.26265" lon="-0.52088">
        <ele>214.99</ele>
        <time>2012-03-13T09:33:52Z</time>
      </trkpt>
      <trkpt lat="43.26252" lon="-0.52095">
        <ele>215.47</ele>
        <time>2012-03-13T09:34:06Z</time>
      </trkpt>
      <trkpt lat="43.26242" lon="-0.52103">
        <ele>216.43</ele>
        <time>2012-03-13T09:34:18Z</time>
      </trkpt>
      <trkpt lat="43.2623" lon="-0.52111">
        <ele>216.43</ele>
        <time>2012-03-13T09:34:32Z</time>
      </trkpt>
      <trkpt lat="43.26218" lon="-0.52116">
        <ele>216.91</ele>
        <time>2012-03-13T09:34:45Z</time>
      </trkpt>
      <trkpt lat="43.26208" lon="-0.52119">
        <ele>216.43</ele>
        <time>2012-03-13T09:34:59Z</time>
      </trkpt>
      <trkpt lat="43.26199" lon="-0.52127">
        <ele>216.91</ele>
        <time>2012-03-13T09:35:12Z</time>
      </trkpt>
      <trkpt lat="43.26191" lon="-0.52134">
        <ele>217.4</ele>
        <time>2012-03-13T09:35:21Z</time>
      </trkpt>
      <trkpt lat="43.2618" lon="-0.52137">
        <ele>217.4</ele>
        <time>2012-03-13T09:35:32Z</time>
      </trkpt>
      <trkpt lat="43.26171" lon="-0.52144">
        <ele>216.91</ele>
        <time>2012-03-13T09:35:40Z</time>
      </trkpt>
      <trkpt lat="43.26161" lon="-0.52156">
        <ele>218.36</ele>
        <time>2012-03-13T09:35:50Z</time>
      </trkpt>
      <trkpt lat="43.26155" lon="-0.52167">
        <ele>218.36</ele>
        <time>2012-03-13T09:36:00Z</time>
      </trkpt>
      <trkpt lat="43.26147" lon="-0.52182">
        <ele>218.36</ele>
        <time>2012-03-13T09:36:11Z</time>
      </trkpt>
      <trkpt lat="43.26143" lon="-0.52193">
        <ele>218.84</ele>
        <time>2012-03-13T09:36:20Z</time>
      </trkpt>
      <trkpt lat="43.26139" lon="-0.52204">
        <ele>218.84</ele>
        <time>2012-03-13T09:36:29Z</time>
      </trkpt>
      <trkpt lat="43.26132" lon="-0.52215">
        <ele>219.8</ele>
        <time>2012-03-13T09:36:38Z</time>
      </trkpt>
      <trkpt lat="43.26123" lon="-0.52225">
        <ele>219.8</ele>
        <time>2012-03-13T09:36:56Z</time>
      </trkpt>
      <trkpt lat="43.26114" lon="-0.52237">
        <ele>220.76</ele>
        <time>2012-03-13T09:37:08Z</time>
      </trkpt>
      <trkpt lat="43.26107" lon="-0.52249">
        <ele>221.72</ele>
        <time>2012-03-13T09:37:18Z</time>
      </trkpt>
      <trkpt lat="43.26098" lon="-0.52264">
        <ele>222.68</ele>
        <time>2012-03-13T09:37:31Z</time>
      </trkpt>
      <trkpt lat="43.2609" lon="-0.52272">
        <ele>222.2</ele>
        <time>2012-03-13T09:37:39Z</time>
      </trkpt>
      <trkpt lat="43.2608" lon="-0.52282">
        <ele>223.16</ele>
        <time>2012-03-13T09:37:51Z</time>
      </trkpt>
      <trkpt lat="43.26075" lon="-0.52294">
        <ele>223.64</ele>
        <time>2012-03-13T09:38:03Z</time>
      </trkpt>
      <trkpt lat="43.26066" lon="-0.52307">
        <ele>223.64</ele>
        <time>2012-03-13T09:38:15Z</time>
      </trkpt>
      <trkpt lat="43.26061" lon="-0.52319">
        <ele>224.12</ele>
        <time>2012-03-13T09:38:25Z</time>
      </trkpt>
      <trkpt lat="43.26054" lon="-0.52328">
        <ele>224.12</ele>
        <time>2012-03-13T09:38:33Z</time>
      </trkpt>
      <trkpt lat="43.26048" lon="-0.52337">
        <ele>224.61</ele>
        <time>2012-03-13T09:38:43Z</time>
      </trkpt>
      <trkpt lat="43.26041" lon="-0.52346">
        <ele>224.61</ele>
        <time>2012-03-13T09:38:55Z</time>
      </trkpt>
      <trkpt lat="43.26032" lon="-0.52352">
        <ele>224.61</ele>
        <time>2012-03-13T09:39:08Z</time>
      </trkpt>
      <trkpt lat="43.26021" lon="-0.5236">
        <ele>225.09</ele>
        <time>2012-03-13T09:39:16Z</time>
      </trkpt>
      <trkpt lat="43.26012" lon="-0.52367">
        <ele>224.61</ele>
        <time>2012-03-13T09:39:25Z</time>
      </trkpt>
      <trkpt lat="43.26006" lon="-0.52376">
        <ele>224.61</ele>
        <time>2012-03-13T09:39:41Z</time>
      </trkpt>
      <trkpt lat="43.25997" lon="-0.52389">
        <ele>224.61</ele>
        <time>2012-03-13T09:39:51Z</time>
      </trkpt>
      <trkpt lat="43.25991" lon="-0.52397">
        <ele>225.09</ele>
        <time>2012-03-13T09:39:58Z</time>
      </trkpt>
      <trkpt lat="43.25986" lon="-0.52409">
        <ele>225.09</ele>
        <time>2012-03-13T09:40:09Z</time>
      </trkpt>
      <trkpt lat="43.25984" lon="-0.52421">
        <ele>225.57</ele>
        <time>2012-03-13T09:40:18Z</time>
      </trkpt>
      <trkpt lat="43.25981" lon="-0.52433">
        <ele>226.05</ele>
        <time>2012-03-13T09:40:28Z</time>
      </trkpt>
      <trkpt lat="43.25971" lon="-0.52436">
        <ele>225.57</ele>
        <time>2012-03-13T09:40:38Z</time>
      </trkpt>
      <trkpt lat="43.25961" lon="-0.52444">
        <ele>225.09</ele>
        <time>2012-03-13T09:40:51Z</time>
      </trkpt>
      <trkpt lat="43.25951" lon="-0.52452">
        <ele>225.09</ele>
        <time>2012-03-13T09:41:03Z</time>
      </trkpt>
      <trkpt lat="43.25943" lon="-0.52459">
        <ele>226.53</ele>
        <time>2012-03-13T09:41:14Z</time>
      </trkpt>
      <trkpt lat="43.25942" lon="-0.52471">
        <ele>227.97</ele>
        <time>2012-03-13T09:41:22Z</time>
      </trkpt>
      <trkpt lat="43.25946" lon="-0.52484">
        <ele>229.41</ele>
        <time>2012-03-13T09:42:30Z</time>
      </trkpt>
      <trkpt lat="43.2594" lon="-0.52505">
        <ele>230.85</ele>
        <time>2012-03-13T09:42:40Z</time>
      </trkpt>
      <trkpt lat="43.25938" lon="-0.52518">
        <ele>231.81</ele>
        <time>2012-03-13T09:42:48Z</time>
      </trkpt>
      <trkpt lat="43.25937" lon="-0.52529">
        <ele>232.78</ele>
        <time>2012-03-13T09:43:01Z</time>
      </trkpt>
      <trkpt lat="43.25932" lon="-0.52539">
        <ele>234.7</ele>
        <time>2012-03-13T09:43:18Z</time>
      </trkpt>
      <trkpt lat="43.25928" lon="-0.52552">
        <ele>236.62</ele>
        <time>2012-03-13T09:43:31Z</time>
      </trkpt>
      <trkpt lat="43.25922" lon="-0.52563">
        <ele>238.54</ele>
        <time>2012-03-13T09:43:44Z</time>
      </trkpt>
      <trkpt lat="43.25922" lon="-0.52573">
        <ele>240.47</ele>
        <time>2012-03-13T09:43:57Z</time>
      </trkpt>
      <trkpt lat="43.25924" lon="-0.52586">
        <ele>242.39</ele>
        <time>2012-03-13T09:44:13Z</time>
      </trkpt>
      <trkpt lat="43.25924" lon="-0.52597">
        <ele>244.31</ele>
        <time>2012-03-13T09:44:24Z</time>
      </trkpt>
      <trkpt lat="43.25924" lon="-0.52609">
        <ele>245.75</ele>
        <time>2012-03-13T09:44:34Z</time>
      </trkpt>
      <trkpt lat="43.2592" lon="-0.52621">
        <ele>248.16</ele>
        <time>2012-03-13T09:44:52Z</time>
      </trkpt>
      <trkpt lat="43.25912" lon="-0.52629">
        <ele>250.56</ele>
        <time>2012-03-13T09:45:11Z</time>
      </trkpt>
      <trkpt lat="43.25903" lon="-0.52636">
        <ele>253.44</ele>
        <time>2012-03-13T09:45:26Z</time>
      </trkpt>
      <trkpt lat="43.25899" lon="-0.52647">
        <ele>255.37</ele>
        <time>2012-03-13T09:45:39Z</time>
      </trkpt>
      <trkpt lat="43.25895" lon="-0.52657">
        <ele>257.77</ele>
        <time>2012-03-13T09:45:54Z</time>
      </trkpt>
      <trkpt lat="43.25891" lon="-0.52668">
        <ele>259.69</ele>
        <time>2012-03-13T09:46:04Z</time>
      </trkpt>
      <trkpt lat="43.25883" lon="-0.52675">
        <ele>261.62</ele>
        <time>2012-03-13T09:46:23Z</time>
      </trkpt>
      <trkpt lat="43.25875" lon="-0.52683">
        <ele>263.06</ele>
        <time>2012-03-13T09:46:33Z</time>
      </trkpt>
      <trkpt lat="43.25869" lon="-0.52694">
        <ele>264.5</ele>
        <time>2012-03-13T09:46:47Z</time>
      </trkpt>
      <trkpt lat="43.25863" lon="-0.52708">
        <ele>266.42</ele>
        <time>2012-03-13T09:47:05Z</time>
      </trkpt>
      <trkpt lat="43.25857" lon="-0.52718">
        <ele>267.86</ele>
        <time>2012-03-13T09:47:17Z</time>
      </trkpt>
      <trkpt lat="43.25853" lon="-0.52729">
        <ele>269.31</ele>
        <time>2012-03-13T09:47:27Z</time>
      </trkpt>
      <trkpt lat="43.25847" lon="-0.5274">
        <ele>270.75</ele>
        <time>2012-03-13T09:47:37Z</time>
      </trkpt>
      <trkpt lat="43.25843" lon="-0.52751">
        <ele>271.71</ele>
        <time>2012-03-13T09:47:49Z</time>
      </trkpt>
      <trkpt lat="43.25841" lon="-0.52763">
        <ele>272.67</ele>
        <time>2012-03-13T09:48:00Z</time>
      </trkpt>
      <trkpt lat="43.25834" lon="-0.52775">
        <ele>274.11</ele>
        <time>2012-03-13T09:48:13Z</time>
      </trkpt>
      <trkpt lat="43.25828" lon="-0.52786">
        <ele>274.59</ele>
        <time>2012-03-13T09:48:23Z</time>
      </trkpt>
      <trkpt lat="43.25827" lon="-0.52799">
        <ele>275.07</ele>
        <time>2012-03-13T09:48:34Z</time>
      </trkpt>
      <trkpt lat="43.25828" lon="-0.52812">
        <ele>276.52</ele>
        <time>2012-03-13T09:48:43Z</time>
      </trkpt>
      <trkpt lat="43.25826" lon="-0.52823">
        <ele>277.48</ele>
        <time>2012-03-13T09:48:55Z</time>
      </trkpt>
      <trkpt lat="43.25824" lon="-0.52838">
        <ele>278.44</ele>
        <time>2012-03-13T09:49:06Z</time>
      </trkpt>
      <trkpt lat="43.25819" lon="-0.52851">
        <ele>278.92</ele>
        <time>2012-03-13T09:49:15Z</time>
      </trkpt>
      <trkpt lat="43.25819" lon="-0.52864">
        <ele>279.88</ele>
        <time>2012-03-13T09:49:24Z</time>
      </trkpt>
      <trkpt lat="43.25819" lon="-0.52876">
        <ele>280.84</ele>
        <time>2012-03-13T09:49:36Z</time>
      </trkpt>
      <trkpt lat="43.25819" lon="-0.5289">
        <ele>281.8</ele>
        <time>2012-03-13T09:49:47Z</time>
      </trkpt>
      <trkpt lat="43.25822" lon="-0.52902">
        <ele>282.28</ele>
        <time>2012-03-13T09:49:56Z</time>
      </trkpt>
      <trkpt lat="43.25822" lon="-0.52914">
        <ele>283.25</ele>
        <time>2012-03-13T09:50:07Z</time>
      </trkpt>
      <trkpt lat="43.2582" lon="-0.52928">
        <ele>284.69</ele>
        <time>2012-03-13T09:50:17Z</time>
      </trkpt>
      <trkpt lat="43.25818" lon="-0.5294">
        <ele>285.17</ele>
        <time>2012-03-13T09:50:26Z</time>
      </trkpt>
      <trkpt lat="43.25816" lon="-0.52956">
        <ele>287.57</ele>
        <time>2012-03-13T09:50:39Z</time>
      </trkpt>
      <trkpt lat="43.25813" lon="-0.52968">
        <ele>289.01</ele>
        <time>2012-03-13T09:50:52Z</time>
      </trkpt>
      <trkpt lat="43.25813" lon="-0.52981">
        <ele>291.42</ele>
        <time>2012-03-13T09:51:07Z</time>
      </trkpt>
      <trkpt lat="43.25811" lon="-0.52994">
        <ele>293.34</ele>
        <time>2012-03-13T09:51:17Z</time>
      </trkpt>
      <trkpt lat="43.25804" lon="-0.53006">
        <ele>294.78</ele>
        <time>2012-03-13T09:51:30Z</time>
      </trkpt>
      <trkpt lat="43.25798" lon="-0.5302">
        <ele>294.3</ele>
        <time>2012-03-13T09:51:44Z</time>
      </trkpt>
      <trkpt lat="43.25789" lon="-0.53031">
        <ele>294.3</ele>
        <time>2012-03-13T09:51:55Z</time>
      </trkpt>
      <trkpt lat="43.25782" lon="-0.53045">
        <ele>293.34</ele>
        <time>2012-03-13T09:52:06Z</time>
      </trkpt>
      <trkpt lat="43.25775" lon="-0.53059">
        <ele>291.9</ele>
        <time>2012-03-13T09:52:18Z</time>
      </trkpt>
      <trkpt lat="43.25766" lon="-0.53071">
        <ele>290.94</ele>
        <time>2012-03-13T09:52:29Z</time>
      </trkpt>
      <trkpt lat="43.25758" lon="-0.53084">
        <ele>289.49</ele>
        <time>2012-03-13T09:52:39Z</time>
      </trkpt>
      <trkpt lat="43.2575" lon="-0.53095">
        <ele>288.53</ele>
        <time>2012-03-13T09:52:49Z</time>
      </trkpt>
      <trkpt lat="43.25737" lon="-0.53104">
        <ele>287.57</ele>
        <time>2012-03-13T09:53:00Z</time>
      </trkpt>
      <trkpt lat="43.25727" lon="-0.53113">
        <ele>287.57</ele>
        <time>2012-03-13T09:53:11Z</time>
      </trkpt>
      <trkpt lat="43.25715" lon="-0.53116">
        <ele>288.53</ele>
        <time>2012-03-13T09:53:22Z</time>
      </trkpt>
      <trkpt lat="43.25706" lon="-0.53112">
        <ele>289.49</ele>
        <time>2012-03-13T09:53:31Z</time>
      </trkpt>
      <trkpt lat="43.25697" lon="-0.53111">
        <ele>290.94</ele>
        <time>2012-03-13T09:53:42Z</time>
      </trkpt>
      <trkpt lat="43.25687" lon="-0.5311">
        <ele>291.9</ele>
        <time>2012-03-13T09:53:56Z</time>
      </trkpt>
      <trkpt lat="43.25679" lon="-0.53109">
        <ele>293.82</ele>
        <time>2012-03-13T09:54:10Z</time>
      </trkpt>
      <trkpt lat="43.25667" lon="-0.53107">
        <ele>295.74</ele>
        <time>2012-03-13T09:54:19Z</time>
      </trkpt>
      <trkpt lat="43.25657" lon="-0.53106">
        <ele>296.7</ele>
        <time>2012-03-13T09:54:27Z</time>
      </trkpt>
      <trkpt lat="43.25647" lon="-0.53106">
        <ele>297.67</ele>
        <time>2012-03-13T09:54:37Z</time>
      </trkpt>
      <trkpt lat="43.25638" lon="-0.53107">
        <ele>299.11</ele>
        <time>2012-03-13T09:54:48Z</time>
      </trkpt>
      <trkpt lat="43.25631" lon="-0.53114">
        <ele>301.03</ele>
        <time>2012-03-13T09:54:58Z</time>
      </trkpt>
      <trkpt lat="43.25622" lon="-0.53121">
        <ele>300.07</ele>
        <time>2012-03-13T09:55:11Z</time>
      </trkpt>
      <trkpt lat="43.25616" lon="-0.53122">
        <ele>301.51</ele>
        <time>2012-03-13T09:56:59Z</time>
      </trkpt>
      <trkpt lat="43.25615" lon="-0.53116">
        <ele>301.51</ele>
        <time>2012-03-13T09:57:35Z</time>
      </trkpt>
      <trkpt lat="43.25625" lon="-0.5312">
        <ele>301.51</ele>
        <time>2012-03-13T09:58:15Z</time>
      </trkpt>
      <trkpt lat="43.25618" lon="-0.5311">
        <ele>301.51</ele>
        <time>2012-03-13T09:59:29Z</time>
      </trkpt>
      <trkpt lat="43.25609" lon="-0.53103">
        <ele>302.47</ele>
        <time>2012-03-13T09:59:41Z</time>
      </trkpt>
      <trkpt lat="43.25601" lon="-0.53097">
        <ele>302.95</ele>
        <time>2012-03-13T09:59:54Z</time>
      </trkpt>
      <trkpt lat="43.2559" lon="-0.5309">
        <ele>303.43</ele>
        <time>2012-03-13T10:00:06Z</time>
      </trkpt>
      <trkpt lat="43.25581" lon="-0.53083">
        <ele>304.39</ele>
        <time>2012-03-13T10:00:17Z</time>
      </trkpt>
      <trkpt lat="43.25571" lon="-0.53078">
        <ele>305.84</ele>
        <time>2012-03-13T10:00:27Z</time>
      </trkpt>
      <trkpt lat="43.25561" lon="-0.53074">
        <ele>306.8</ele>
        <time>2012-03-13T10:00:38Z</time>
      </trkpt>
      <trkpt lat="43.25551" lon="-0.53072">
        <ele>307.76</ele>
        <time>2012-03-13T10:00:49Z</time>
      </trkpt>
      <trkpt lat="43.2554" lon="-0.53069">
        <ele>308.24</ele>
        <time>2012-03-13T10:00:59Z</time>
      </trkpt>
      <trkpt lat="43.25529" lon="-0.53069">
        <ele>308.24</ele>
        <time>2012-03-13T10:01:09Z</time>
      </trkpt>
      <trkpt lat="43.25517" lon="-0.53069">
        <ele>307.76</ele>
        <time>2012-03-13T10:01:18Z</time>
      </trkpt>
      <trkpt lat="43.25507" lon="-0.53069">
        <ele>308.72</ele>
        <time>2012-03-13T10:01:27Z</time>
      </trkpt>
      <trkpt lat="43.25497" lon="-0.53068">
        <ele>308.72</ele>
        <time>2012-03-13T10:01:36Z</time>
      </trkpt>
      <trkpt lat="43.25486" lon="-0.53067">
        <ele>308.72</ele>
        <time>2012-03-13T10:01:46Z</time>
      </trkpt>
      <trkpt lat="43.25476" lon="-0.53065">
        <ele>309.2</ele>
        <time>2012-03-13T10:01:56Z</time>
      </trkpt>
      <trkpt lat="43.25464" lon="-0.53063">
        <ele>308.72</ele>
        <time>2012-03-13T10:02:06Z</time>
      </trkpt>
      <trkpt lat="43.25451" lon="-0.5306">
        <ele>308.72</ele>
        <time>2012-03-13T10:02:19Z</time>
      </trkpt>
      <trkpt lat="43.2544" lon="-0.53054">
        <ele>309.68</ele>
        <time>2012-03-13T10:02:29Z</time>
      </trkpt>
      <trkpt lat="43.2543" lon="-0.53043">
        <ele>309.68</ele>
        <time>2012-03-13T10:02:40Z</time>
      </trkpt>
      <trkpt lat="43.25419" lon="-0.53031">
        <ele>311.12</ele>
        <time>2012-03-13T10:02:51Z</time>
      </trkpt>
      <trkpt lat="43.25408" lon="-0.53025">
        <ele>311.6</ele>
        <time>2012-03-13T10:03:02Z</time>
      </trkpt>
      <trkpt lat="43.25399" lon="-0.53016">
        <ele>313.05</ele>
        <time>2012-03-13T10:03:12Z</time>
      </trkpt>
      <trkpt lat="43.25391" lon="-0.53008">
        <ele>313.53</ele>
        <time>2012-03-13T10:03:22Z</time>
      </trkpt>
      <trkpt lat="43.25381" lon="-0.53003">
        <ele>314.49</ele>
        <time>2012-03-13T10:03:31Z</time>
      </trkpt>
      <trkpt lat="43.25371" lon="-0.52996">
        <ele>314.97</ele>
        <time>2012-03-13T10:03:40Z</time>
      </trkpt>
      <trkpt lat="43.25362" lon="-0.52991">
        <ele>315.45</ele>
        <time>2012-03-13T10:03:49Z</time>
      </trkpt>
      <trkpt lat="43.25354" lon="-0.52982">
        <ele>315.45</ele>
        <time>2012-03-13T10:03:58Z</time>
      </trkpt>
      <trkpt lat="43.25347" lon="-0.52972">
        <ele>315.93</ele>
        <time>2012-03-13T10:04:07Z</time>
      </trkpt>
      <trkpt lat="43.25342" lon="-0.52961">
        <ele>317.37</ele>
        <time>2012-03-13T10:04:16Z</time>
      </trkpt>
      <trkpt lat="43.25336" lon="-0.52948">
        <ele>316.89</ele>
        <time>2012-03-13T10:04:26Z</time>
      </trkpt>
      <trkpt lat="43.25331" lon="-0.52935">
        <ele>316.89</ele>
        <time>2012-03-13T10:04:36Z</time>
      </trkpt>
      <trkpt lat="43.25323" lon="-0.52924">
        <ele>316.41</ele>
        <time>2012-03-13T10:04:46Z</time>
      </trkpt>
      <trkpt lat="43.25311" lon="-0.52913">
        <ele>315.93</ele>
        <time>2012-03-13T10:04:59Z</time>
      </trkpt>
      <trkpt lat="43.25301" lon="-0.52904">
        <ele>315.93</ele>
        <time>2012-03-13T10:05:10Z</time>
      </trkpt>
      <trkpt lat="43.25289" lon="-0.52889">
        <ele>315.45</ele>
        <time>2012-03-13T10:05:21Z</time>
      </trkpt>
      <trkpt lat="43.25282" lon="-0.52881">
        <ele>315.93</ele>
        <time>2012-03-13T10:05:29Z</time>
      </trkpt>
      <trkpt lat="43.25274" lon="-0.5287">
        <ele>316.41</ele>
        <time>2012-03-13T10:05:37Z</time>
      </trkpt>
      <trkpt lat="43.25265" lon="-0.5286">
        <ele>315.45</ele>
        <time>2012-03-13T10:05:47Z</time>
      </trkpt>
      <trkpt lat="43.25256" lon="-0.52847">
        <ele>315.93</ele>
        <time>2012-03-13T10:05:56Z</time>
      </trkpt>
      <trkpt lat="43.25247" lon="-0.52834">
        <ele>316.41</ele>
        <time>2012-03-13T10:06:08Z</time>
      </trkpt>
      <trkpt lat="43.25238" lon="-0.52821">
        <ele>316.89</ele>
        <time>2012-03-13T10:06:18Z</time>
      </trkpt>
      <trkpt lat="43.25227" lon="-0.5281">
        <ele>316.89</ele>
        <time>2012-03-13T10:06:30Z</time>
      </trkpt>
      <trkpt lat="43.25219" lon="-0.52798">
        <ele>316.41</ele>
        <time>2012-03-13T10:06:41Z</time>
      </trkpt>
      <trkpt lat="43.25209" lon="-0.52786">
        <ele>316.89</ele>
        <time>2012-03-13T10:06:54Z</time>
      </trkpt>
      <trkpt lat="43.252" lon="-0.52775">
        <ele>316.89</ele>
        <time>2012-03-13T10:07:04Z</time>
      </trkpt>
      <trkpt lat="43.25192" lon="-0.52763">
        <ele>316.41</ele>
        <time>2012-03-13T10:07:15Z</time>
      </trkpt>
      <trkpt lat="43.25183" lon="-0.52751">
        <ele>315.45</ele>
        <time>2012-03-13T10:07:27Z</time>
      </trkpt>
      <trkpt lat="43.25175" lon="-0.52738">
        <ele>315.45</ele>
        <time>2012-03-13T10:07:37Z</time>
      </trkpt>
      <trkpt lat="43.25166" lon="-0.52725">
        <ele>315.45</ele>
        <time>2012-03-13T10:07:47Z</time>
      </trkpt>
      <trkpt lat="43.25156" lon="-0.52711">
        <ele>314.49</ele>
        <time>2012-03-13T10:07:57Z</time>
      </trkpt>
      <trkpt lat="43.25148" lon="-0.527">
        <ele>314.01</ele>
        <time>2012-03-13T10:08:07Z</time>
      </trkpt>
      <trkpt lat="43.25141" lon="-0.52688">
        <ele>313.53</ele>
        <time>2012-03-13T10:08:16Z</time>
      </trkpt>
      <trkpt lat="43.25135" lon="-0.52673">
        <ele>312.57</ele>
        <time>2012-03-13T10:08:26Z</time>
      </trkpt>
      <trkpt lat="43.2513" lon="-0.52657">
        <ele>312.57</ele>
        <time>2012-03-13T10:08:37Z</time>
      </trkpt>
      <trkpt lat="43.25128" lon="-0.52645">
        <ele>312.09</ele>
        <time>2012-03-13T10:08:47Z</time>
      </trkpt>
      <trkpt lat="43.25123" lon="-0.52633">
        <ele>312.09</ele>
        <time>2012-03-13T10:08:55Z</time>
      </trkpt>
      <trkpt lat="43.2512" lon="-0.52621">
        <ele>311.6</ele>
        <time>2012-03-13T10:09:04Z</time>
      </trkpt>
      <trkpt lat="43.25115" lon="-0.52605">
        <ele>311.6</ele>
        <time>2012-03-13T10:09:13Z</time>
      </trkpt>
      <trkpt lat="43.25113" lon="-0.52593">
        <ele>312.09</ele>
        <time>2012-03-13T10:09:23Z</time>
      </trkpt>
      <trkpt lat="43.25109" lon="-0.52574">
        <ele>312.09</ele>
        <time>2012-03-13T10:09:34Z</time>
      </trkpt>
      <trkpt lat="43.25106" lon="-0.52562">
        <ele>312.09</ele>
        <time>2012-03-13T10:09:43Z</time>
      </trkpt>
      <trkpt lat="43.25107" lon="-0.52547">
        <ele>311.6</ele>
        <time>2012-03-13T10:09:51Z</time>
      </trkpt>
      <trkpt lat="43.25101" lon="-0.52532">
        <ele>311.6</ele>
        <time>2012-03-13T10:09:59Z</time>
      </trkpt>
      <trkpt lat="43.25094" lon="-0.52523">
        <ele>312.09</ele>
        <time>2012-03-13T10:10:06Z</time>
      </trkpt>
      <trkpt lat="43.25089" lon="-0.5251">
        <ele>312.09</ele>
        <time>2012-03-13T10:10:15Z</time>
      </trkpt>
      <trkpt lat="43.25086" lon="-0.52496">
        <ele>311.6</ele>
        <time>2012-03-13T10:10:25Z</time>
      </trkpt>
      <trkpt lat="43.25083" lon="-0.52483">
        <ele>311.12</ele>
        <time>2012-03-13T10:10:33Z</time>
      </trkpt>
      <trkpt lat="43.25076" lon="-0.5247">
        <ele>311.12</ele>
        <time>2012-03-13T10:10:42Z</time>
      </trkpt>
      <trkpt lat="43.25068" lon="-0.52462">
        <ele>310.16</ele>
        <time>2012-03-13T10:10:49Z</time>
      </trkpt>
      <trkpt lat="43.25058" lon="-0.52452">
        <ele>309.68</ele>
        <time>2012-03-13T10:10:57Z</time>
      </trkpt>
      <trkpt lat="43.25047" lon="-0.52441">
        <ele>309.2</ele>
        <time>2012-03-13T10:11:08Z</time>
      </trkpt>
      <trkpt lat="43.25037" lon="-0.52432">
        <ele>308.72</ele>
        <time>2012-03-13T10:11:17Z</time>
      </trkpt>
      <trkpt lat="43.25025" lon="-0.52427">
        <ele>307.76</ele>
        <time>2012-03-13T10:11:27Z</time>
      </trkpt>
      <trkpt lat="43.25013" lon="-0.52424">
        <ele>307.28</ele>
        <time>2012-03-13T10:11:37Z</time>
      </trkpt>
      <trkpt lat="43.25003" lon="-0.52416">
        <ele>306.8</ele>
        <time>2012-03-13T10:11:46Z</time>
      </trkpt>
      <trkpt lat="43.24993" lon="-0.52414">
        <ele>307.28</ele>
        <time>2012-03-13T10:11:55Z</time>
      </trkpt>
      <trkpt lat="43.24983" lon="-0.52405">
        <ele>306.32</ele>
        <time>2012-03-13T10:12:03Z</time>
      </trkpt>
      <trkpt lat="43.24972" lon="-0.52397">
        <ele>306.8</ele>
        <time>2012-03-13T10:12:12Z</time>
      </trkpt>
      <trkpt lat="43.24963" lon="-0.5239">
        <ele>306.8</ele>
        <time>2012-03-13T10:12:20Z</time>
      </trkpt>
      <trkpt lat="43.24952" lon="-0.52385">
        <ele>306.8</ele>
        <time>2012-03-13T10:12:29Z</time>
      </trkpt>
      <trkpt lat="43.24941" lon="-0.52378">
        <ele>306.8</ele>
        <time>2012-03-13T10:12:38Z</time>
      </trkpt>
      <trkpt lat="43.24931" lon="-0.52374">
        <ele>307.28</ele>
        <time>2012-03-13T10:12:48Z</time>
      </trkpt>
      <trkpt lat="43.24922" lon="-0.52366">
        <ele>307.76</ele>
        <time>2012-03-13T10:12:57Z</time>
      </trkpt>
      <trkpt lat="43.24912" lon="-0.52355">
        <ele>308.72</ele>
        <time>2012-03-13T10:13:06Z</time>
      </trkpt>
      <trkpt lat="43.24904" lon="-0.5235">
        <ele>308.72</ele>
        <time>2012-03-13T10:13:16Z</time>
      </trkpt>
      <trkpt lat="43.24895" lon="-0.52347">
        <ele>309.68</ele>
        <time>2012-03-13T10:13:25Z</time>
      </trkpt>
      <trkpt lat="43.24884" lon="-0.52341">
        <ele>309.2</ele>
        <time>2012-03-13T10:13:34Z</time>
      </trkpt>
      <trkpt lat="43.24875" lon="-0.52337">
        <ele>309.2</ele>
        <time>2012-03-13T10:13:42Z</time>
      </trkpt>
      <trkpt lat="43.24865" lon="-0.52329">
        <ele>309.2</ele>
        <time>2012-03-13T10:13:51Z</time>
      </trkpt>
      <trkpt lat="43.24855" lon="-0.52323">
        <ele>309.68</ele>
        <time>2012-03-13T10:14:01Z</time>
      </trkpt>
      <trkpt lat="43.24844" lon="-0.52319">
        <ele>310.16</ele>
        <time>2012-03-13T10:14:11Z</time>
      </trkpt>
      <trkpt lat="43.24833" lon="-0.52313">
        <ele>310.16</ele>
        <time>2012-03-13T10:14:20Z</time>
      </trkpt>
      <trkpt lat="43.24825" lon="-0.52305">
        <ele>311.6</ele>
        <time>2012-03-13T10:14:30Z</time>
      </trkpt>
      <trkpt lat="43.24818" lon="-0.52297">
        <ele>313.05</ele>
        <time>2012-03-13T10:14:39Z</time>
      </trkpt>
      <trkpt lat="43.2481" lon="-0.52285">
        <ele>320.26</ele>
        <time>2012-03-13T10:17:36Z</time>
      </trkpt>
      <trkpt lat="43.24802" lon="-0.52284">
        <ele>321.22</ele>
        <time>2012-03-13T10:18:02Z</time>
      </trkpt>
      <trkpt lat="43.24797" lon="-0.52272">
        <ele>322.66</ele>
        <time>2012-03-13T10:18:10Z</time>
      </trkpt>
      <trkpt lat="43.2479" lon="-0.52265">
        <ele>324.58</ele>
        <time>2012-03-13T10:18:21Z</time>
      </trkpt>
      <trkpt lat="43.24785" lon="-0.52256">
        <ele>324.58</ele>
        <time>2012-03-13T10:18:31Z</time>
      </trkpt>
      <trkpt lat="43.24778" lon="-0.52246">
        <ele>327.47</ele>
        <time>2012-03-13T10:18:41Z</time>
      </trkpt>
      <trkpt lat="43.24771" lon="-0.52239">
        <ele>327.95</ele>
        <time>2012-03-13T10:18:51Z</time>
      </trkpt>
      <trkpt lat="43.24763" lon="-0.5223">
        <ele>328.91</ele>
        <time>2012-03-13T10:19:01Z</time>
      </trkpt>
      <trkpt lat="43.24757" lon="-0.52222">
        <ele>329.87</ele>
        <time>2012-03-13T10:19:10Z</time>
      </trkpt>
      <trkpt lat="43.2475" lon="-0.52213">
        <ele>330.83</ele>
        <time>2012-03-13T10:19:20Z</time>
      </trkpt>
      <trkpt lat="43.24742" lon="-0.52205">
        <ele>332.27</ele>
        <time>2012-03-13T10:19:30Z</time>
      </trkpt>
      <trkpt lat="43.24735" lon="-0.52196">
        <ele>332.75</ele>
        <time>2012-03-13T10:19:40Z</time>
      </trkpt>
      <trkpt lat="43.24728" lon="-0.52186">
        <ele>333.71</ele>
        <time>2012-03-13T10:19:50Z</time>
      </trkpt>
      <trkpt lat="43.2472" lon="-0.52177">
        <ele>334.2</ele>
        <time>2012-03-13T10:19:59Z</time>
      </trkpt>
      <trkpt lat="43.24713" lon="-0.52168">
        <ele>335.16</ele>
        <time>2012-03-13T10:20:08Z</time>
      </trkpt>
      <trkpt lat="43.24706" lon="-0.52161">
        <ele>335.64</ele>
        <time>2012-03-13T10:20:17Z</time>
      </trkpt>
      <trkpt lat="43.24699" lon="-0.52153">
        <ele>336.12</ele>
        <time>2012-03-13T10:20:26Z</time>
      </trkpt>
      <trkpt lat="43.24691" lon="-0.52145">
        <ele>336.6</ele>
        <time>2012-03-13T10:20:35Z</time>
      </trkpt>
      <trkpt lat="43.24683" lon="-0.52138">
        <ele>336.6</ele>
        <time>2012-03-13T10:20:44Z</time>
      </trkpt>
      <trkpt lat="43.24674" lon="-0.5213">
        <ele>337.56</ele>
        <time>2012-03-13T10:20:53Z</time>
      </trkpt>
      <trkpt lat="43.24666" lon="-0.52125">
        <ele>338.52</ele>
        <time>2012-03-13T10:21:02Z</time>
      </trkpt>
      <trkpt lat="43.24657" lon="-0.52123">
        <ele>339.48</ele>
        <time>2012-03-13T10:21:11Z</time>
      </trkpt>
      <trkpt lat="43.24649" lon="-0.5212">
        <ele>339.48</ele>
        <time>2012-03-13T10:21:20Z</time>
      </trkpt>
      <trkpt lat="43.24638" lon="-0.52116">
        <ele>339.48</ele>
        <time>2012-03-13T10:21:29Z</time>
      </trkpt>
      <trkpt lat="43.24628" lon="-0.52112">
        <ele>339.96</ele>
        <time>2012-03-13T10:21:38Z</time>
      </trkpt>
      <trkpt lat="43.2462" lon="-0.52109">
        <ele>339.96</ele>
        <time>2012-03-13T10:21:47Z</time>
      </trkpt>
      <trkpt lat="43.24611" lon="-0.52104">
        <ele>339.48</ele>
        <time>2012-03-13T10:21:56Z</time>
      </trkpt>
      <trkpt lat="43.24603" lon="-0.521">
        <ele>339</ele>
        <time>2012-03-13T10:22:05Z</time>
      </trkpt>
      <trkpt lat="43.24595" lon="-0.52095">
        <ele>338.52</ele>
        <time>2012-03-13T10:22:14Z</time>
      </trkpt>
      <trkpt lat="43.24586" lon="-0.52091">
        <ele>338.04</ele>
        <time>2012-03-13T10:22:27Z</time>
      </trkpt>
      <trkpt lat="43.24576" lon="-0.52086">
        <ele>337.56</ele>
        <time>2012-03-13T10:22:35Z</time>
      </trkpt>
      <trkpt lat="43.24566" lon="-0.52083">
        <ele>336.6</ele>
        <time>2012-03-13T10:22:44Z</time>
      </trkpt>
      <trkpt lat="43.24556" lon="-0.5208">
        <ele>336.12</ele>
        <time>2012-03-13T10:22:52Z</time>
      </trkpt>
      <trkpt lat="43.24546" lon="-0.52077">
        <ele>335.64</ele>
        <time>2012-03-13T10:23:00Z</time>
      </trkpt>
      <trkpt lat="43.24536" lon="-0.52074">
        <ele>336.12</ele>
        <time>2012-03-13T10:23:08Z</time>
      </trkpt>
      <trkpt lat="43.24527" lon="-0.5207">
        <ele>335.64</ele>
        <time>2012-03-13T10:23:17Z</time>
      </trkpt>
      <trkpt lat="43.24516" lon="-0.52067">
        <ele>335.64</ele>
        <time>2012-03-13T10:23:26Z</time>
      </trkpt>
      <trkpt lat="43.24506" lon="-0.52065">
        <ele>335.16</ele>
        <time>2012-03-13T10:23:34Z</time>
      </trkpt>
      <trkpt lat="43.24498" lon="-0.52061">
        <ele>335.16</ele>
        <time>2012-03-13T10:23:46Z</time>
      </trkpt>
      <trkpt lat="43.24489" lon="-0.52059">
        <ele>335.16</ele>
        <time>2012-03-13T10:23:54Z</time>
      </trkpt>
      <trkpt lat="43.24479" lon="-0.52051">
        <ele>334.68</ele>
        <time>2012-03-13T10:24:03Z</time>
      </trkpt>
      <trkpt lat="43.2447" lon="-0.52044">
        <ele>333.71</ele>
        <time>2012-03-13T10:24:13Z</time>
      </trkpt>
      <trkpt lat="43.24462" lon="-0.52036">
        <ele>332.75</ele>
        <time>2012-03-13T10:24:22Z</time>
      </trkpt>
      <trkpt lat="43.24454" lon="-0.52029">
        <ele>331.79</ele>
        <time>2012-03-13T10:24:30Z</time>
      </trkpt>
      <trkpt lat="43.24446" lon="-0.52023">
        <ele>331.31</ele>
        <time>2012-03-13T10:24:39Z</time>
      </trkpt>
      <trkpt lat="43.24438" lon="-0.52018">
        <ele>330.83</ele>
        <time>2012-03-13T10:24:49Z</time>
      </trkpt>
      <trkpt lat="43.24429" lon="-0.5201">
        <ele>329.39</ele>
        <time>2012-03-13T10:24:59Z</time>
      </trkpt>
      <trkpt lat="43.24421" lon="-0.52005">
        <ele>328.91</ele>
        <time>2012-03-13T10:25:08Z</time>
      </trkpt>
      <trkpt lat="43.24416" lon="-0.52002">
        <ele>328.43</ele>
        <time>2012-03-13T10:26:47Z</time>
      </trkpt>
      <trkpt lat="43.24411" lon="-0.51998">
        <ele>328.91</ele>
        <time>2012-03-13T10:27:23Z</time>
      </trkpt>
      <trkpt lat="43.24402" lon="-0.51991">
        <ele>327.95</ele>
        <time>2012-03-13T10:27:34Z</time>
      </trkpt>
      <trkpt lat="43.24393" lon="-0.51983">
        <ele>327.47</ele>
        <time>2012-03-13T10:27:43Z</time>
      </trkpt>
      <trkpt lat="43.24384" lon="-0.51975">
        <ele>326.5</ele>
        <time>2012-03-13T10:27:51Z</time>
      </trkpt>
      <trkpt lat="43.24376" lon="-0.51969">
        <ele>326.5</ele>
        <time>2012-03-13T10:27:58Z</time>
      </trkpt>
      <trkpt lat="43.24368" lon="-0.51962">
        <ele>326.5</ele>
        <time>2012-03-13T10:28:05Z</time>
      </trkpt>
      <trkpt lat="43.2436" lon="-0.51954">
        <ele>326.5</ele>
        <time>2012-03-13T10:28:13Z</time>
      </trkpt>
      <trkpt lat="43.24353" lon="-0.51947">
        <ele>326.02</ele>
        <time>2012-03-13T10:28:20Z</time>
      </trkpt>
      <trkpt lat="43.24345" lon="-0.51939">
        <ele>326.02</ele>
        <time>2012-03-13T10:28:27Z</time>
      </trkpt>
      <trkpt lat="43.24338" lon="-0.5193">
        <ele>326.02</ele>
        <time>2012-03-13T10:28:35Z</time>
      </trkpt>
      <trkpt lat="43.2433" lon="-0.51922">
        <ele>325.54</ele>
        <time>2012-03-13T10:28:43Z</time>
      </trkpt>
      <trkpt lat="43.24323" lon="-0.51914">
        <ele>325.54</ele>
        <time>2012-03-13T10:28:51Z</time>
      </trkpt>
      <trkpt lat="43.24315" lon="-0.51905">
        <ele>325.54</ele>
        <time>2012-03-13T10:28:59Z</time>
      </trkpt>
      <trkpt lat="43.24308" lon="-0.51895">
        <ele>325.06</ele>
        <time>2012-03-13T10:29:07Z</time>
      </trkpt>
      <trkpt lat="43.243" lon="-0.51886">
        <ele>325.06</ele>
        <time>2012-03-13T10:29:15Z</time>
      </trkpt>
      <trkpt lat="43.24294" lon="-0.51876">
        <ele>325.54</ele>
        <time>2012-03-13T10:29:23Z</time>
      </trkpt>
      <trkpt lat="43.24287" lon="-0.51866">
        <ele>325.54</ele>
        <time>2012-03-13T10:29:32Z</time>
      </trkpt>
      <trkpt lat="43.24278" lon="-0.51852">
        <ele>325.06</ele>
        <time>2012-03-13T10:29:43Z</time>
      </trkpt>
      <trkpt lat="43.2427" lon="-0.51838">
        <ele>325.54</ele>
        <time>2012-03-13T10:29:56Z</time>
      </trkpt>
      <trkpt lat="43.24259" lon="-0.51824">
        <ele>325.06</ele>
        <time>2012-03-13T10:30:09Z</time>
      </trkpt>
      <trkpt lat="43.2425" lon="-0.51816">
        <ele>325.06</ele>
        <time>2012-03-13T10:31:00Z</time>
      </trkpt>
      <trkpt lat="43.24241" lon="-0.51806">
        <ele>324.1</ele>
        <time>2012-03-13T10:32:26Z</time>
      </trkpt>
      <trkpt lat="43.2423" lon="-0.51799">
        <ele>322.66</ele>
        <time>2012-03-13T10:32:40Z</time>
      </trkpt>
      <trkpt lat="43.24223" lon="-0.51788">
        <ele>320.74</ele>
        <time>2012-03-13T10:32:53Z</time>
      </trkpt>
      <trkpt lat="43.24215" lon="-0.5178">
        <ele>320.26</ele>
        <time>2012-03-13T10:33:04Z</time>
      </trkpt>
      <trkpt lat="43.24209" lon="-0.5177">
        <ele>319.3</ele>
        <time>2012-03-13T10:33:14Z</time>
      </trkpt>
      <trkpt lat="43.242" lon="-0.51763">
        <ele>318.81</ele>
        <time>2012-03-13T10:33:22Z</time>
      </trkpt>
      <trkpt lat="43.2419" lon="-0.51753">
        <ele>318.81</ele>
        <time>2012-03-13T10:33:32Z</time>
      </trkpt>
      <trkpt lat="43.24182" lon="-0.51744">
        <ele>318.33</ele>
        <time>2012-03-13T10:33:44Z</time>
      </trkpt>
      <trkpt lat="43.24167" lon="-0.51734">
        <ele>317.85</ele>
        <time>2012-03-13T10:33:57Z</time>
      </trkpt>
      <trkpt lat="43.24153" lon="-0.51733">
        <ele>318.33</ele>
        <time>2012-03-13T10:34:07Z</time>
      </trkpt>
      <trkpt lat="43.24142" lon="-0.51731">
        <ele>318.33</ele>
        <time>2012-03-13T10:34:16Z</time>
      </trkpt>
      <trkpt lat="43.24131" lon="-0.51728">
        <ele>318.33</ele>
        <time>2012-03-13T10:34:25Z</time>
      </trkpt>
      <trkpt lat="43.24122" lon="-0.51724">
        <ele>318.81</ele>
        <time>2012-03-13T10:34:33Z</time>
      </trkpt>
      <trkpt lat="43.24113" lon="-0.51721">
        <ele>318.81</ele>
        <time>2012-03-13T10:34:41Z</time>
      </trkpt>
      <trkpt lat="43.24104" lon="-0.51717">
        <ele>319.3</ele>
        <time>2012-03-13T10:34:49Z</time>
      </trkpt>
      <trkpt lat="43.24096" lon="-0.51711">
        <ele>319.3</ele>
        <time>2012-03-13T10:34:57Z</time>
      </trkpt>
      <trkpt lat="43.24086" lon="-0.51709">
        <ele>319.78</ele>
        <time>2012-03-13T10:35:06Z</time>
      </trkpt>
      <trkpt lat="43.24076" lon="-0.51706">
        <ele>320.26</ele>
        <time>2012-03-13T10:35:15Z</time>
      </trkpt>
      <trkpt lat="43.24066" lon="-0.51703">
        <ele>321.22</ele>
        <time>2012-03-13T10:35:25Z</time>
      </trkpt>
      <trkpt lat="43.24056" lon="-0.51698">
        <ele>321.7</ele>
        <time>2012-03-13T10:35:34Z</time>
      </trkpt>
      <trkpt lat="43.24047" lon="-0.51693">
        <ele>322.18</ele>
        <time>2012-03-13T10:35:42Z</time>
      </trkpt>
      <trkpt lat="43.24038" lon="-0.5169">
        <ele>322.66</ele>
        <time>2012-03-13T10:35:50Z</time>
      </trkpt>
      <trkpt lat="43.24028" lon="-0.51685">
        <ele>322.66</ele>
        <time>2012-03-13T10:35:58Z</time>
      </trkpt>
      <trkpt lat="43.24017" lon="-0.51681">
        <ele>322.18</ele>
        <time>2012-03-13T10:36:07Z</time>
      </trkpt>
      <trkpt lat="43.24007" lon="-0.51675">
        <ele>321.7</ele>
        <time>2012-03-13T10:36:16Z</time>
      </trkpt>
      <trkpt lat="43.23998" lon="-0.51671">
        <ele>321.7</ele>
        <time>2012-03-13T10:36:24Z</time>
      </trkpt>
      <trkpt lat="43.23987" lon="-0.51667">
        <ele>321.7</ele>
        <time>2012-03-13T10:36:34Z</time>
      </trkpt>
      <trkpt lat="43.23976" lon="-0.51663">
        <ele>322.18</ele>
        <time>2012-03-13T10:36:44Z</time>
      </trkpt>
      <trkpt lat="43.23966" lon="-0.51659">
        <ele>322.18</ele>
        <time>2012-03-13T10:36:53Z</time>
      </trkpt>
      <trkpt lat="43.23956" lon="-0.51659">
        <ele>323.14</ele>
        <time>2012-03-13T10:37:03Z</time>
      </trkpt>
      <trkpt lat="43.23945" lon="-0.5166">
        <ele>324.1</ele>
        <time>2012-03-13T10:37:14Z</time>
      </trkpt>
      <trkpt lat="43.23935" lon="-0.51657">
        <ele>325.06</ele>
        <time>2012-03-13T10:37:24Z</time>
      </trkpt>
      <trkpt lat="43.23924" lon="-0.51654">
        <ele>325.54</ele>
        <time>2012-03-13T10:37:34Z</time>
      </trkpt>
      <trkpt lat="43.23915" lon="-0.51651">
        <ele>326.99</ele>
        <time>2012-03-13T10:37:44Z</time>
      </trkpt>
      <trkpt lat="43.23905" lon="-0.51646">
        <ele>327.47</ele>
        <time>2012-03-13T10:37:54Z</time>
      </trkpt>
      <trkpt lat="43.23895" lon="-0.51641">
        <ele>327.95</ele>
        <time>2012-03-13T10:38:04Z</time>
      </trkpt>
      <trkpt lat="43.23885" lon="-0.51637">
        <ele>328.43</ele>
        <time>2012-03-13T10:38:13Z</time>
      </trkpt>
      <trkpt lat="43.23876" lon="-0.51633">
        <ele>329.39</ele>
        <time>2012-03-13T10:38:23Z</time>
      </trkpt>
      <trkpt lat="43.23866" lon="-0.51628">
        <ele>330.35</ele>
        <time>2012-03-13T10:38:34Z</time>
      </trkpt>
      <trkpt lat="43.23855" lon="-0.51623">
        <ele>332.27</ele>
        <time>2012-03-13T10:38:46Z</time>
      </trkpt>
      <trkpt lat="43.23846" lon="-0.51616">
        <ele>333.23</ele>
        <time>2012-03-13T10:38:58Z</time>
      </trkpt>
      <trkpt lat="43.23838" lon="-0.51611">
        <ele>333.71</ele>
        <time>2012-03-13T10:39:09Z</time>
      </trkpt>
      <trkpt lat="43.2383" lon="-0.51602">
        <ele>332.75</ele>
        <time>2012-03-13T10:39:21Z</time>
      </trkpt>
      <trkpt lat="43.23825" lon="-0.51594">
        <ele>332.27</ele>
        <time>2012-03-13T10:39:56Z</time>
      </trkpt>
      <trkpt lat="43.2382" lon="-0.51585">
        <ele>330.83</ele>
        <time>2012-03-13T10:40:09Z</time>
      </trkpt>
      <trkpt lat="43.23812" lon="-0.51578">
        <ele>328.91</ele>
        <time>2012-03-13T10:40:19Z</time>
      </trkpt>
      <trkpt lat="43.23803" lon="-0.51572">
        <ele>327.47</ele>
        <time>2012-03-13T10:40:28Z</time>
      </trkpt>
      <trkpt lat="43.23793" lon="-0.51566">
        <ele>325.54</ele>
        <time>2012-03-13T10:40:38Z</time>
      </trkpt>
      <trkpt lat="43.23784" lon="-0.51563">
        <ele>323.62</ele>
        <time>2012-03-13T10:40:49Z</time>
      </trkpt>
      <trkpt lat="43.23775" lon="-0.51561">
        <ele>321.22</ele>
        <time>2012-03-13T10:40:58Z</time>
      </trkpt>
      <trkpt lat="43.23765" lon="-0.51557">
        <ele>320.26</ele>
        <time>2012-03-13T10:41:07Z</time>
      </trkpt>
      <trkpt lat="43.23754" lon="-0.51555">
        <ele>318.81</ele>
        <time>2012-03-13T10:41:18Z</time>
      </trkpt>
      <trkpt lat="43.23743" lon="-0.51553">
        <ele>318.33</ele>
        <time>2012-03-13T10:41:41Z</time>
      </trkpt>
      <trkpt lat="43.23732" lon="-0.5155">
        <ele>317.37</ele>
        <time>2012-03-13T10:41:53Z</time>
      </trkpt>
      <trkpt lat="43.23733" lon="-0.51551">
        <ele>316.89</ele>
        <time>2012-03-13T10:43:16Z</time>
      </trkpt>
      <trkpt lat="43.23742" lon="-0.51546">
        <ele>316.89</ele>
        <time>2012-03-13T10:43:27Z</time>
      </trkpt>
      <trkpt lat="43.23754" lon="-0.51537">
        <ele>314.97</ele>
        <time>2012-03-13T10:43:39Z</time>
      </trkpt>
      <trkpt lat="43.23763" lon="-0.51524">
        <ele>314.97</ele>
        <time>2012-03-13T10:43:52Z</time>
      </trkpt>
      <trkpt lat="43.2377" lon="-0.51512">
        <ele>314.49</ele>
        <time>2012-03-13T10:44:03Z</time>
      </trkpt>
      <trkpt lat="43.23777" lon="-0.515">
        <ele>314.49</ele>
        <time>2012-03-13T10:44:13Z</time>
      </trkpt>
      <trkpt lat="43.23784" lon="-0.51489">
        <ele>314.49</ele>
        <time>2012-03-13T10:44:25Z</time>
      </trkpt>
      <trkpt lat="43.23791" lon="-0.51476">
        <ele>314.97</ele>
        <time>2012-03-13T10:44:36Z</time>
      </trkpt>
      <trkpt lat="43.238" lon="-0.51466">
        <ele>314.01</ele>
        <time>2012-03-13T10:44:46Z</time>
      </trkpt>
      <trkpt lat="43.23806" lon="-0.51458">
        <ele>314.49</ele>
        <time>2012-03-13T10:44:56Z</time>
      </trkpt>
      <trkpt lat="43.23814" lon="-0.51448">
        <ele>314.49</ele>
        <time>2012-03-13T10:45:07Z</time>
      </trkpt>
      <trkpt lat="43.23819" lon="-0.51436">
        <ele>314.49</ele>
        <time>2012-03-13T10:45:19Z</time>
      </trkpt>
      <trkpt lat="43.23829" lon="-0.51429">
        <ele>314.49</ele>
        <time>2012-03-13T10:45:28Z</time>
      </trkpt>
      <trkpt lat="43.23838" lon="-0.51418">
        <ele>314.97</ele>
        <time>2012-03-13T10:45:37Z</time>
      </trkpt>
      <trkpt lat="43.23848" lon="-0.51409">
        <ele>314.97</ele>
        <time>2012-03-13T10:45:47Z</time>
      </trkpt>
      <trkpt lat="43.23857" lon="-0.51403">
        <ele>314.97</ele>
        <time>2012-03-13T10:45:59Z</time>
      </trkpt>
      <trkpt lat="43.23867" lon="-0.51399">
        <ele>315.93</ele>
        <time>2012-03-13T10:46:13Z</time>
      </trkpt>
      <trkpt lat="43.2388" lon="-0.51393">
        <ele>315.45</ele>
        <time>2012-03-13T10:46:25Z</time>
      </trkpt>
      <trkpt lat="43.23891" lon="-0.51388">
        <ele>316.41</ele>
        <time>2012-03-13T10:46:35Z</time>
      </trkpt>
      <trkpt lat="43.23905" lon="-0.5138">
        <ele>316.89</ele>
        <time>2012-03-13T10:46:46Z</time>
      </trkpt>
      <trkpt lat="43.23921" lon="-0.51373">
        <ele>316.41</ele>
        <time>2012-03-13T10:46:56Z</time>
      </trkpt>
      <trkpt lat="43.2393" lon="-0.51367">
        <ele>317.37</ele>
        <time>2012-03-13T10:47:12Z</time>
      </trkpt>
      <trkpt lat="43.23943" lon="-0.51364">
        <ele>317.37</ele>
        <time>2012-03-13T10:47:26Z</time>
      </trkpt>
      <trkpt lat="43.23955" lon="-0.51367">
        <ele>317.85</ele>
        <time>2012-03-13T10:47:34Z</time>
      </trkpt>
      <trkpt lat="43.23965" lon="-0.51363">
        <ele>318.33</ele>
        <time>2012-03-13T10:47:44Z</time>
      </trkpt>
      <trkpt lat="43.23977" lon="-0.51357">
        <ele>319.78</ele>
        <time>2012-03-13T10:47:54Z</time>
      </trkpt>
      <trkpt lat="43.23988" lon="-0.51354">
        <ele>318.81</ele>
        <time>2012-03-13T10:48:03Z</time>
      </trkpt>
      <trkpt lat="43.23997" lon="-0.51355">
        <ele>317.85</ele>
        <time>2012-03-13T10:48:12Z</time>
      </trkpt>
      <trkpt lat="43.24007" lon="-0.51354">
        <ele>318.33</ele>
        <time>2012-03-13T10:48:21Z</time>
      </trkpt>
      <trkpt lat="43.24017" lon="-0.51349">
        <ele>318.33</ele>
        <time>2012-03-13T10:48:31Z</time>
      </trkpt>
      <trkpt lat="43.24027" lon="-0.51343">
        <ele>318.33</ele>
        <time>2012-03-13T10:48:42Z</time>
      </trkpt>
      <trkpt lat="43.24034" lon="-0.51334">
        <ele>318.81</ele>
        <time>2012-03-13T10:48:52Z</time>
      </trkpt>
      <trkpt lat="43.24042" lon="-0.51323">
        <ele>318.33</ele>
        <time>2012-03-13T10:49:02Z</time>
      </trkpt>
      <trkpt lat="43.2405" lon="-0.51314">
        <ele>318.81</ele>
        <time>2012-03-13T10:49:13Z</time>
      </trkpt>
      <trkpt lat="43.24057" lon="-0.51305">
        <ele>318.81</ele>
        <time>2012-03-13T10:49:24Z</time>
      </trkpt>
      <trkpt lat="43.2407" lon="-0.51294">
        <ele>319.78</ele>
        <time>2012-03-13T10:49:36Z</time>
      </trkpt>
      <trkpt lat="43.24077" lon="-0.51285">
        <ele>320.26</ele>
        <time>2012-03-13T10:49:48Z</time>
      </trkpt>
      <trkpt lat="43.24084" lon="-0.51275">
        <ele>321.22</ele>
        <time>2012-03-13T10:49:56Z</time>
      </trkpt>
      <trkpt lat="43.24091" lon="-0.51263">
        <ele>321.7</ele>
        <time>2012-03-13T10:50:07Z</time>
      </trkpt>
      <trkpt lat="43.24097" lon="-0.51252">
        <ele>323.62</ele>
        <time>2012-03-13T10:50:18Z</time>
      </trkpt>
      <trkpt lat="43.24106" lon="-0.51241">
        <ele>324.1</ele>
        <time>2012-03-13T10:50:28Z</time>
      </trkpt>
      <trkpt lat="43.24108" lon="-0.51239">
        <ele>326.02</ele>
        <time>2012-03-13T10:51:37Z</time>
      </trkpt>
      <trkpt lat="43.2411" lon="-0.51227">
        <ele>325.54</ele>
        <time>2012-03-13T10:51:57Z</time>
      </trkpt>
      <trkpt lat="43.24114" lon="-0.51214">
        <ele>325.06</ele>
        <time>2012-03-13T10:52:06Z</time>
      </trkpt>
      <trkpt lat="43.24117" lon="-0.512">
        <ele>325.54</ele>
        <time>2012-03-13T10:52:14Z</time>
      </trkpt>
      <trkpt lat="43.24118" lon="-0.51185">
        <ele>325.54</ele>
        <time>2012-03-13T10:52:22Z</time>
      </trkpt>
      <trkpt lat="43.24118" lon="-0.51172">
        <ele>326.5</ele>
        <time>2012-03-13T10:52:32Z</time>
      </trkpt>
      <trkpt lat="43.24119" lon="-0.51157">
        <ele>326.5</ele>
        <time>2012-03-13T10:52:41Z</time>
      </trkpt>
      <trkpt lat="43.24119" lon="-0.51145">
        <ele>326.5</ele>
        <time>2012-03-13T10:52:49Z</time>
      </trkpt>
      <trkpt lat="43.2412" lon="-0.5113">
        <ele>326.5</ele>
        <time>2012-03-13T10:52:57Z</time>
      </trkpt>
      <trkpt lat="43.24123" lon="-0.51117">
        <ele>326.5</ele>
        <time>2012-03-13T10:53:05Z</time>
      </trkpt>
      <trkpt lat="43.24123" lon="-0.51104">
        <ele>326.02</ele>
        <time>2012-03-13T10:53:12Z</time>
      </trkpt>
      <trkpt lat="43.24122" lon="-0.51091">
        <ele>326.5</ele>
        <time>2012-03-13T10:53:20Z</time>
      </trkpt>
      <trkpt lat="43.24122" lon="-0.51078">
        <ele>326.02</ele>
        <time>2012-03-13T10:53:29Z</time>
      </trkpt>
      <trkpt lat="43.24122" lon="-0.51064">
        <ele>325.54</ele>
        <time>2012-03-13T10:53:40Z</time>
      </trkpt>
      <trkpt lat="43.24125" lon="-0.51053">
        <ele>324.1</ele>
        <time>2012-03-13T10:53:55Z</time>
      </trkpt>
      <trkpt lat="43.24131" lon="-0.51041">
        <ele>323.14</ele>
        <time>2012-03-13T10:54:05Z</time>
      </trkpt>
      <trkpt lat="43.24139" lon="-0.51031">
        <ele>321.7</ele>
        <time>2012-03-13T10:54:21Z</time>
      </trkpt>
      <trkpt lat="43.24147" lon="-0.51024">
        <ele>320.74</ele>
        <time>2012-03-13T10:54:30Z</time>
      </trkpt>
      <trkpt lat="43.24159" lon="-0.5102">
        <ele>320.26</ele>
        <time>2012-03-13T10:54:40Z</time>
      </trkpt>
      <trkpt lat="43.24168" lon="-0.51017">
        <ele>318.33</ele>
        <time>2012-03-13T10:54:54Z</time>
      </trkpt>
      <trkpt lat="43.24178" lon="-0.51013">
        <ele>317.85</ele>
        <time>2012-03-13T10:55:10Z</time>
      </trkpt>
      <trkpt lat="43.24185" lon="-0.51004">
        <ele>315.45</ele>
        <time>2012-03-13T10:55:23Z</time>
      </trkpt>
      <trkpt lat="43.24194" lon="-0.50995">
        <ele>314.49</ele>
        <time>2012-03-13T10:55:36Z</time>
      </trkpt>
      <trkpt lat="43.24202" lon="-0.50984">
        <ele>313.05</ele>
        <time>2012-03-13T10:55:48Z</time>
      </trkpt>
      <trkpt lat="43.24209" lon="-0.50976">
        <ele>312.57</ele>
        <time>2012-03-13T10:55:58Z</time>
      </trkpt>
      <trkpt lat="43.24217" lon="-0.50966">
        <ele>312.09</ele>
        <time>2012-03-13T10:56:08Z</time>
      </trkpt>
      <trkpt lat="43.24232" lon="-0.50953">
        <ele>311.12</ele>
        <time>2012-03-13T10:56:19Z</time>
      </trkpt>
      <trkpt lat="43.24246" lon="-0.50942">
        <ele>311.12</ele>
        <time>2012-03-13T10:56:29Z</time>
      </trkpt>
      <trkpt lat="43.24255" lon="-0.50932">
        <ele>309.68</ele>
        <time>2012-03-13T10:56:39Z</time>
      </trkpt>
      <trkpt lat="43.24263" lon="-0.5092">
        <ele>309.68</ele>
        <time>2012-03-13T10:56:49Z</time>
      </trkpt>
      <trkpt lat="43.2427" lon="-0.5091">
        <ele>309.2</ele>
        <time>2012-03-13T10:56:58Z</time>
      </trkpt>
      <trkpt lat="43.24277" lon="-0.50899">
        <ele>309.2</ele>
        <time>2012-03-13T10:57:07Z</time>
      </trkpt>
      <trkpt lat="43.24287" lon="-0.50894">
        <ele>308.24</ele>
        <time>2012-03-13T10:57:17Z</time>
      </trkpt>
      <trkpt lat="43.24298" lon="-0.5089">
        <ele>307.28</ele>
        <time>2012-03-13T10:57:27Z</time>
      </trkpt>
      <trkpt lat="43.2431" lon="-0.50883">
        <ele>306.8</ele>
        <time>2012-03-13T10:57:38Z</time>
      </trkpt>
      <trkpt lat="43.24321" lon="-0.50877">
        <ele>306.32</ele>
        <time>2012-03-13T10:57:49Z</time>
      </trkpt>
      <trkpt lat="43.24332" lon="-0.50872">
        <ele>306.32</ele>
        <time>2012-03-13T10:58:00Z</time>
      </trkpt>
      <trkpt lat="43.24341" lon="-0.50864">
        <ele>306.32</ele>
        <time>2012-03-13T10:58:10Z</time>
      </trkpt>
      <trkpt lat="43.24352" lon="-0.50858">
        <ele>305.36</ele>
        <time>2012-03-13T10:58:19Z</time>
      </trkpt>
      <trkpt lat="43.24359" lon="-0.50852">
        <ele>305.84</ele>
        <time>2012-03-13T10:58:28Z</time>
      </trkpt>
      <trkpt lat="43.2437" lon="-0.50843">
        <ele>305.36</ele>
        <time>2012-03-13T10:58:38Z</time>
      </trkpt>
      <trkpt lat="43.24379" lon="-0.50833">
        <ele>304.39</ele>
        <time>2012-03-13T10:58:48Z</time>
      </trkpt>
      <trkpt lat="43.24385" lon="-0.50821">
        <ele>304.39</ele>
        <time>2012-03-13T10:58:59Z</time>
      </trkpt>
      <trkpt lat="43.24389" lon="-0.50811">
        <ele>304.88</ele>
        <time>2012-03-13T10:59:10Z</time>
      </trkpt>
      <trkpt lat="43.24396" lon="-0.50801">
        <ele>305.36</ele>
        <time>2012-03-13T10:59:19Z</time>
      </trkpt>
      <trkpt lat="43.24406" lon="-0.50791">
        <ele>306.32</ele>
        <time>2012-03-13T10:59:29Z</time>
      </trkpt>
      <trkpt lat="43.24415" lon="-0.50781">
        <ele>306.8</ele>
        <time>2012-03-13T10:59:38Z</time>
      </trkpt>
      <trkpt lat="43.24426" lon="-0.50775">
        <ele>306.32</ele>
        <time>2012-03-13T10:59:48Z</time>
      </trkpt>
      <trkpt lat="43.24441" lon="-0.50768">
        <ele>305.84</ele>
        <time>2012-03-13T10:59:59Z</time>
      </trkpt>
      <trkpt lat="43.2445" lon="-0.50762">
        <ele>305.36</ele>
        <time>2012-03-13T11:00:22Z</time>
      </trkpt>
      <trkpt lat="43.24458" lon="-0.50771">
        <ele>304.39</ele>
        <time>2012-03-13T11:03:20Z</time>
      </trkpt>
      <trkpt lat="43.24464" lon="-0.50782">
        <ele>303.91</ele>
        <time>2012-03-13T11:03:32Z</time>
      </trkpt>
      <trkpt lat="43.24475" lon="-0.50792">
        <ele>303.43</ele>
        <time>2012-03-13T11:03:43Z</time>
      </trkpt>
      <trkpt lat="43.24485" lon="-0.50796">
        <ele>302.47</ele>
        <time>2012-03-13T11:03:51Z</time>
      </trkpt>
      <trkpt lat="43.24497" lon="-0.50802">
        <ele>301.51</ele>
        <time>2012-03-13T11:04:01Z</time>
      </trkpt>
      <trkpt lat="43.24513" lon="-0.50811">
        <ele>299.59</ele>
        <time>2012-03-13T11:04:15Z</time>
      </trkpt>
      <trkpt lat="43.24523" lon="-0.50818">
        <ele>299.11</ele>
        <time>2012-03-13T11:04:28Z</time>
      </trkpt>
      <trkpt lat="43.24532" lon="-0.50836">
        <ele>298.63</ele>
        <time>2012-03-13T11:04:41Z</time>
      </trkpt>
      <trkpt lat="43.2454" lon="-0.50848">
        <ele>297.67</ele>
        <time>2012-03-13T11:04:52Z</time>
      </trkpt>
      <trkpt lat="43.24548" lon="-0.50856">
        <ele>296.7</ele>
        <time>2012-03-13T11:05:03Z</time>
      </trkpt>
      <trkpt lat="43.24558" lon="-0.50862">
        <ele>296.7</ele>
        <time>2012-03-13T11:05:11Z</time>
      </trkpt>
      <trkpt lat="43.24569" lon="-0.50871">
        <ele>296.7</ele>
        <time>2012-03-13T11:05:22Z</time>
      </trkpt>
      <trkpt lat="43.24579" lon="-0.50876">
        <ele>296.22</ele>
        <time>2012-03-13T11:05:31Z</time>
      </trkpt>
      <trkpt lat="43.24589" lon="-0.50885">
        <ele>295.74</ele>
        <time>2012-03-13T11:05:40Z</time>
      </trkpt>
      <trkpt lat="43.24599" lon="-0.509">
        <ele>295.74</ele>
        <time>2012-03-13T11:05:53Z</time>
      </trkpt>
      <trkpt lat="43.24608" lon="-0.50903">
        <ele>295.74</ele>
        <time>2012-03-13T11:06:05Z</time>
      </trkpt>
      <trkpt lat="43.2462" lon="-0.5091">
        <ele>294.78</ele>
        <time>2012-03-13T11:06:19Z</time>
      </trkpt>
      <trkpt lat="43.24622" lon="-0.50923">
        <ele>294.78</ele>
        <time>2012-03-13T11:06:30Z</time>
      </trkpt>
      <trkpt lat="43.24633" lon="-0.50933">
        <ele>294.3</ele>
        <time>2012-03-13T11:06:42Z</time>
      </trkpt>
      <trkpt lat="43.24655" lon="-0.50942">
        <ele>294.3</ele>
        <time>2012-03-13T11:06:53Z</time>
      </trkpt>
      <trkpt lat="43.2467" lon="-0.5095">
        <ele>294.3</ele>
        <time>2012-03-13T11:07:04Z</time>
      </trkpt>
      <trkpt lat="43.24682" lon="-0.50957">
        <ele>293.82</ele>
        <time>2012-03-13T11:07:15Z</time>
      </trkpt>
      <trkpt lat="43.24694" lon="-0.50964">
        <ele>293.82</ele>
        <time>2012-03-13T11:07:28Z</time>
      </trkpt>
      <trkpt lat="43.24704" lon="-0.50971">
        <ele>293.34</ele>
        <time>2012-03-13T11:07:45Z</time>
      </trkpt>
      <trkpt lat="43.24721" lon="-0.50982">
        <ele>293.82</ele>
        <time>2012-03-13T11:07:57Z</time>
      </trkpt>
      <trkpt lat="43.24738" lon="-0.50989">
        <ele>293.82</ele>
        <time>2012-03-13T11:08:11Z</time>
      </trkpt>
      <trkpt lat="43.2475" lon="-0.50998">
        <ele>294.3</ele>
        <time>2012-03-13T11:08:22Z</time>
      </trkpt>
      <trkpt lat="43.24746" lon="-0.50992">
        <ele>294.3</ele>
        <time>2012-03-13T11:08:52Z</time>
      </trkpt>
      <trkpt lat="43.24766" lon="-0.51004">
        <ele>294.3</ele>
        <time>2012-03-13T11:09:13Z</time>
      </trkpt>
      <trkpt lat="43.24776" lon="-0.51009">
        <ele>294.3</ele>
        <time>2012-03-13T11:09:21Z</time>
      </trkpt>
      <trkpt lat="43.24785" lon="-0.51008">
        <ele>294.3</ele>
        <time>2012-03-13T11:09:33Z</time>
      </trkpt>
      <trkpt lat="43.24794" lon="-0.51002">
        <ele>292.86</ele>
        <time>2012-03-13T11:09:46Z</time>
      </trkpt>
      <trkpt lat="43.24817" lon="-0.50999">
        <ele>292.38</ele>
        <time>2012-03-13T11:09:59Z</time>
      </trkpt>
      <trkpt lat="43.24828" lon="-0.51001">
        <ele>292.38</ele>
        <time>2012-03-13T11:10:08Z</time>
      </trkpt>
      <trkpt lat="43.24839" lon="-0.51003">
        <ele>292.86</ele>
        <time>2012-03-13T11:10:19Z</time>
      </trkpt>
      <trkpt lat="43.24852" lon="-0.51004">
        <ele>292.38</ele>
        <time>2012-03-13T11:10:29Z</time>
      </trkpt>
      <trkpt lat="43.24863" lon="-0.51004">
        <ele>291.9</ele>
        <time>2012-03-13T11:10:39Z</time>
      </trkpt>
      <trkpt lat="43.24875" lon="-0.51011">
        <ele>291.9</ele>
        <time>2012-03-13T11:10:49Z</time>
      </trkpt>
      <trkpt lat="43.24888" lon="-0.51013">
        <ele>291.9</ele>
        <time>2012-03-13T11:10:58Z</time>
      </trkpt>
      <trkpt lat="43.24897" lon="-0.51018">
        <ele>291.42</ele>
        <time>2012-03-13T11:11:05Z</time>
      </trkpt>
      <trkpt lat="43.24905" lon="-0.51027">
        <ele>291.42</ele>
        <time>2012-03-13T11:11:16Z</time>
      </trkpt>
      <trkpt lat="43.24913" lon="-0.5103">
        <ele>292.38</ele>
        <time>2012-03-13T11:11:34Z</time>
      </trkpt>
      <trkpt lat="43.24924" lon="-0.51027">
        <ele>292.38</ele>
        <time>2012-03-13T11:11:43Z</time>
      </trkpt>
      <trkpt lat="43.24933" lon="-0.51023">
        <ele>293.34</ele>
        <time>2012-03-13T11:11:52Z</time>
      </trkpt>
      <trkpt lat="43.24944" lon="-0.51019">
        <ele>293.82</ele>
        <time>2012-03-13T11:12:01Z</time>
      </trkpt>
      <trkpt lat="43.24953" lon="-0.51019">
        <ele>294.78</ele>
        <time>2012-03-13T11:12:11Z</time>
      </trkpt>
      <trkpt lat="43.24976" lon="-0.51016">
        <ele>295.26</ele>
        <time>2012-03-13T11:12:20Z</time>
      </trkpt>
      <trkpt lat="43.24985" lon="-0.51015">
        <ele>295.26</ele>
        <time>2012-03-13T11:12:26Z</time>
      </trkpt>
      <trkpt lat="43.24994" lon="-0.51023">
        <ele>295.26</ele>
        <time>2012-03-13T11:13:05Z</time>
      </trkpt>
      <trkpt lat="43.24996" lon="-0.51036">
        <ele>296.22</ele>
        <time>2012-03-13T11:13:12Z</time>
      </trkpt>
      <trkpt lat="43.24996" lon="-0.51048">
        <ele>296.7</ele>
        <time>2012-03-13T11:13:20Z</time>
      </trkpt>
      <trkpt lat="43.24994" lon="-0.5106">
        <ele>296.7</ele>
        <time>2012-03-13T11:13:30Z</time>
      </trkpt>
      <trkpt lat="43.2499" lon="-0.51069">
        <ele>296.7</ele>
        <time>2012-03-13T11:13:41Z</time>
      </trkpt>
      <trkpt lat="43.24987" lon="-0.51082">
        <ele>296.7</ele>
        <time>2012-03-13T11:13:51Z</time>
      </trkpt>
      <trkpt lat="43.24987" lon="-0.51095">
        <ele>295.74</ele>
        <time>2012-03-13T11:14:01Z</time>
      </trkpt>
      <trkpt lat="43.24987" lon="-0.51113">
        <ele>295.26</ele>
        <time>2012-03-13T11:14:10Z</time>
      </trkpt>
      <trkpt lat="43.24987" lon="-0.51127">
        <ele>293.82</ele>
        <time>2012-03-13T11:14:22Z</time>
      </trkpt>
      <trkpt lat="43.24993" lon="-0.51149">
        <ele>292.86</ele>
        <time>2012-03-13T11:14:37Z</time>
      </trkpt>
      <trkpt lat="43.24996" lon="-0.51161">
        <ele>290.94</ele>
        <time>2012-03-13T11:14:49Z</time>
      </trkpt>
      <trkpt lat="43.24994" lon="-0.51174">
        <ele>288.53</ele>
        <time>2012-03-13T11:15:01Z</time>
      </trkpt>
      <trkpt lat="43.2499" lon="-0.51185">
        <ele>287.09</ele>
        <time>2012-03-13T11:15:11Z</time>
      </trkpt>
      <trkpt lat="43.24985" lon="-0.51197">
        <ele>283.73</ele>
        <time>2012-03-13T11:15:27Z</time>
      </trkpt>
      <trkpt lat="43.24981" lon="-0.51211">
        <ele>281.8</ele>
        <time>2012-03-13T11:15:40Z</time>
      </trkpt>
      <trkpt lat="43.24982" lon="-0.51223">
        <ele>279.4</ele>
        <time>2012-03-13T11:15:51Z</time>
      </trkpt>
      <trkpt lat="43.24983" lon="-0.51237">
        <ele>278.44</ele>
        <time>2012-03-13T11:15:59Z</time>
      </trkpt>
      <trkpt lat="43.24986" lon="-0.51255">
        <ele>274.59</ele>
        <time>2012-03-13T11:16:13Z</time>
      </trkpt>
      <trkpt lat="43.24991" lon="-0.51271">
        <ele>271.23</ele>
        <time>2012-03-13T11:16:31Z</time>
      </trkpt>
      <trkpt lat="43.24995" lon="-0.51289">
        <ele>268.35</ele>
        <time>2012-03-13T11:16:43Z</time>
      </trkpt>
      <trkpt lat="43.25003" lon="-0.51305">
        <ele>266.42</ele>
        <time>2012-03-13T11:16:58Z</time>
      </trkpt>
      <trkpt lat="43.25013" lon="-0.51315">
        <ele>263.06</ele>
        <time>2012-03-13T11:17:12Z</time>
      </trkpt>
      <trkpt lat="43.25019" lon="-0.51328">
        <ele>261.62</ele>
        <time>2012-03-13T11:17:23Z</time>
      </trkpt>
      <trkpt lat="43.25026" lon="-0.51336">
        <ele>258.73</ele>
        <time>2012-03-13T11:17:36Z</time>
      </trkpt>
      <trkpt lat="43.25041" lon="-0.51336">
        <ele>257.29</ele>
        <time>2012-03-13T11:17:49Z</time>
      </trkpt>
    </trkseg>
  </trk>
</gpx>